Tropical Cyclones
[Index]
Listing of all Tropical Cyclones from Australian Bureau of Meteorolgy data
[BoM Tropical Cyclone Listing] [JTWC Tropical Cyclone Listing] [Operational Tropical Storm Listing]

The following is a list of all tropical cyclones which have occurred in the Australian warning region. The data is sourced from the Bureau of Meteorology and is complete to the 2019/20 season.

Click on a tropical cyclone name to view the track map.

      cyclone    start date     end date       latitude  longitude    min  max  cyclone
      number     yyyy-mm-dd hh  yyyy-mm-dd hh  min  max  min   max    hPa  kts  name                  
=============================================================================================
   1  190607_01  1907-01-17 23  1907-01-26 23  130  290  1375  1465   993       190607_01
   2  190708_01  1908-01-06 23  1908-01-10 23  130  210  1400  1560   999       190708_01
   3  190708_02  1908-03-11 23  1908-03-13 23  180  265  1490  1505   992       190708_02
   4  190809_01  1909-01-29 23  1909-02-03 23  140  245  1530  1593   990       190809_01
   5  190910_01  1910-01-24 23  1910-01-30 23  127  214  1449  1542   988       190910_01
   6  191011_01  1910-11-18 01  1910-11-21 01  150  191  1197  1221   965       191011_01
   7  191011_02  1911-01-02 23  1911-01-12 08  147  280  1384  1480   996       191011_02
   8  191011_03  1911-02-06 01  1911-02-08 01  183  229  1112  1171             191011_03
   9  191011_04  1911-02-09 23  1911-02-12 23  127  238  1432  1495   988       191011_04
  10  191011_05  1911-03-15 23  1911-03-17 23  151  179  1400  1469  1000       191011_05
  11  191011_06  1911-03-20 23  1911-03-26 23  138  216  1479  1570   996       191011_06
  12  191112_01  1912-01-05 23  1912-01-08 11  196  266  1551  1610   988       191112_01
  13  191112_02  1912-02-08 01  1912-02-10 01  170  203  1197  1246             191112_02
  14  191112_03  1912-03-05 01  1912-03-06 03  170  183  1198  1204             191112_03
  15  191112_04  1912-03-19 01  1912-03-22 01  168  212  1169  1193   977       191112_04
  16  191112_05  1912-04-04 23  1912-04-06 23  130  182  1462  1490   998       191112_05
  17  191213_01  1913-01-06 23  1913-01-08 23  210  246  1440  1562  1000       191213_01
  18  191213_02  1913-01-11 23  1913-01-17 23  125  203  1502  1540   990       191213_02
  19  191213_03  1913-01-19 23  1913-01-22 23  131  152  1380  1521   990       191213_03
  20  191213_04  1913-01-27 23  1913-02-09 23  138  180  1255  1520   985       191213_04
  21  191213_05  1913-04-03 23  1913-04-07 23  120  293  1472  1582   988       191213_05
  22  191213_06  1913-04-13 23  1913-04-16 23  139  163  1515  1544  1000       191213_06
  23  191314_01  1913-12-30 23  1914-01-04 23  120  153  1292  1403   996       191314_01
  24  191314_02  1914-02-17 23  1914-02-20 23  160  282  1566  1631   996       191314_02
  25  191314_03  1914-03-05 23  1914-03-11 23  130  190  1531  1605   988       191314_03
  26  191415_01  1914-12-27 23  1914-12-30 23  190  308  1425  1540   994       191415_01
  27  191415_02  1915-02-04 23  1915-02-10 23  169  309  1470  1597   970       191415_02
  28  191415_03  1915-02-25 01  1915-02-25 19  216  320  1121  1142             191415_03
  29  191415_04  1915-03-09 23  1915-03-24 23  130  178  1475  1582   988       191415_04
  30  191516_01  1915-12-21 23  1915-12-23 23  120  138  1285  1324             191516_01
  31  191516_02  1916-01-04 23  1916-01-06 23  170  210  1590  1649   992       191516_02
  32  191516_03  1916-01-17 01  1916-01-20 01  175  260  1119  1183             191516_03
  33  191516_04  1916-02-08 23  1916-02-11 23  174  294  1563  1613   992       191516_04
  34  191516_05  1916-02-17 23  1916-02-19 23  118  119  1459  1479   998       191516_05
  35  191516_06  1916-03-02 01  1916-03-04 01  180  220  1215  1220             191516_06
  36  191516_07  1916-04-10 23  1916-04-14 23  160  273  1525  1640   988       191516_07
  37  191617_01  1916-12-25 23  1916-12-27 23  194  231  1463  1521   994       191617_01
  38  191617_02  1916-12-31 23  1917-01-03 23  177  226  1405  1490   992       191617_02
  39  191617_03  1917-01-04 01  1917-01-06 01  160  205  1220  1232             191617_03
  40  191617_04  1917-03-14 01  1917-03-15 01  206  237  1151  1180             191617_04
  41  191617_05  1917-03-25 23  1917-03-28 23  133  214  1476  1638   980       191617_05
  42  191617_06  1917-03-28 01  1917-03-29 01  190  227  1170  1182   991       191617_06
  43  191718_01  1917-12-12 23  1917-12-17 17  178  232  1488  1650   996       191718_01
  44  191718_02  1917-12-18 01  1917-12-20 01  127  223  1210  1232             191718_02
  45  191718_03  1918-01-19 23  1918-01-22 23  185  228  1420  1519   933       191718_03
  46  191718_04  1918-01-31 01  1918-02-04 01  160  290  1133  1190   970       191718_04
  47  191718_06  1918-03-07 23  1918-03-11 23  135  239  1404  1535   944       191718_06
  48  191718_07  1918-03-14 23  1918-03-17 10  167  269  1588  1620   985       191718_07
  49  191819_01  1919-03-01 23  1919-03-04 08  207  291  1522  1546   988       191819_01
  50  191819_02  1919-03-02 23  1919-03-06 23  117  153  1283  1331             191819_02
  51  191920_01  1920-02-01 23  1920-02-03 23  152  199  1400  1507   988       191920_01
  52  191920_03  1920-03-23 23  1920-03-24 23  060  070  1265  1295             191920_03
  53  191920_04  1920-04-06 23  1920-04-13 01  060  110  1208  1312             191920_04
  54  191920_05  1920-04-14 01  1920-04-16 01  170  215  1197  1203             191920_05
  55  192021_01  1920-12-16 23  1920-12-24 01  104  230  1219  1465   992       192021_01
  56  192021_02  1921-01-07 23  1921-01-11 23  128  166  1308  1383             192021_02
  57  192021_03  1921-01-19 23  1921-01-30 23  102  237  1453  1600   990       192021_03
  58  192021_04  1921-02-17 01  1921-02-19 01  210  283  1130  1140   989       192021_04
  59  192021_05  1921-03-28 23  1921-04-04 23  119  195  1398  1472   982       192021_05
  60  192021_06  1921-04-01 23  1921-04-07 23  141  283  1503  1592   970       192021_06
  61  192122_01  1922-01-15 23  1922-01-19 23  122  208  1516  1629   971       192122_01
  62  192122_02  1922-02-06 23  1922-02-21 23  196  276  1520  1638   995       192122_02
  63  192122_03  1922-03-13 01  1922-03-15 01  140  140  1250  1260   990       192122_03
  64  192223_01  1923-01-15 01  1923-01-19 01  200  311  1120  1150   990       192223_01
  65  192223_04  1923-02-21 23  1923-02-26 23  110  282  1474  1616   984       192223_04
  66  192223_05  1923-03-07 23  1923-03-10 01  125  160  1200  1255             192223_05
  67  192223_07  1923-03-18 01  1923-03-25 09  130  320  1107  1180             192223_07
  68  192223_08  1923-03-20 23  1923-03-31 23  097  150  1337  1460   974       192223_08
  69  192223_09  1923-04-10 23  1923-04-14 23  212  282  1557  1642   998       192223_09
  70  192223_10  1923-04-25 23  1923-04-28 13  223  320  1531  1572   998       192223_10
  71  192324_01  1924-01-17 23  1924-01-22 23  199  297  1573  1601   989       192324_01
  72  192425_01  1925-01-19 01  1925-01-23 01  150  255  1153  1205   952       192425_01
  73  192425_02  1925-02-23 01  1925-02-27 01  150  280  1169  1200             192425_02
  74  192425_03  1925-02-24 23  1925-02-27 05  162  183  1404  1521   992       192425_03
  75  192425_04  1925-06-18 05  1925-06-22 23  201  326  1502  1627   999       192425_04
  76  192526_01  1926-01-14 01  1926-01-24 01  150  209  1220  1260   996       192526_01
  77  192526_03  1926-02-06 23  1926-02-12 23  150  192  1472  1533   999       192526_03
  78  192526_04  1926-03-21 23  1926-03-25 23  164  370  1291  1655   996       192526_04
  79  192526_05  1926-05-15 23  1926-05-19 23  220  327  1542  1628   999       192526_05
  80  192627_01  1926-12-19 01  1926-12-23 01  143  181  1203  1227             192627_01
  81  192627_02  1927-02-05 23  1927-02-11 23  151  180  1407  1529   989       192627_02
  82  192627_03  1927-03-11 20  1927-03-12 13  255  320  1050  1137             192627_03
  83  192627_04  1927-03-20 01  1927-03-21 01  202  250  1138  1159   977       192627_04
  84  192627_05  1927-03-29 01  1927-04-01 01  180  305  1080  1116   995       192627_05
  85  192627_06  1927-03-29 23  1927-04-02 18  146  320  1531  1580   990       192627_06
  86  192728_01  1927-11-28 23  1927-11-30 23  225  311  1567  1602   999       192728_01
  87  192728_02  1928-02-12 01  1928-02-13 01  184  213  1177  1186             192728_02
  88  192728_03  1928-02-12 23  1928-02-14 05  249  280  1510  1552   992       192728_03
  89  192728_04  1928-03-01 23  1928-03-08 23  141  174  1473  1575   996       192728_04
  90  192728_05  1928-03-26 01  1928-03-27 01  180  210  1070  1080   999       192728_05
  91  192728_06  1928-04-18 23  1928-04-22 23  208  230  1498  1543  1002       192728_06
  92  192829_01  1929-01-09 01  1929-01-11 01  190  263  1147  1180             192829_01
  93  192829_02  1929-01-09 01  1929-01-10 01  150  160  1320  1320   995       192829_02
  94  192829_03  1929-01-10 23  1929-01-14 23  197  240  1526  1556   992       192829_03
  95  192829_04  1929-01-20 23  1929-01-24 23  154  196  1479  1533   996       192829_04
  96  192829_05  1929-02-09 01  1929-02-15 01  138  290  1140  1250             192829_05
  97  192829_06  1929-02-19 23  1929-02-22 23  183  206  1505  1540   996       192829_06
  98  192829_07  1929-02-23 23  1929-03-02 23  144  326  1450  1608   985       192829_07
  99  192829_08  1929-02-25 23  1929-02-28 23  152  164  1315  1441   998       192829_08
 100  192829_09  1929-06-13 23  1929-06-16 23  180  266  1530  1580   996       192829_09
 101  192930_01  1930-01-03 23  1930-01-08 20  138  169  1329  1491   992       192930_01
 102  192930_02  1930-01-18 23  1930-01-22 23  149  188  1402  1528   996       192930_02
 103  192930_03  1930-01-27 23  1930-01-31 23  169  238  1487  1567   992       192930_03
 104  192930_04  1930-02-17 01  1930-02-19 01  170  240  1203  1232             192930_04
 105  192930_05  1930-03-01 23  1930-03-04 23  137  178  1490  1568  1000       192930_05
 106  193031_01  1930-12-26 01  1930-12-29 01  150  225  1200  1210             193031_01
 107  193031_02  1931-01-19 23  1931-01-25 01  146  180  1197  1262             193031_02
 108  193031_03  1931-01-29 23  1931-02-07 23  148  251  1370  1588   982       193031_03
 109  193031_04  1931-03-28 01  1931-03-30 01  160  242  1150  1180   965       193031_04
 110  193132_01  1932-01-16 23  1932-01-20 23  139  190  1406  1500   994       193132_01
 111  193132_02  1932-01-29 23  1932-02-03 01  130  201  1240  1330   994       193132_02
 112  193233_01  1933-03-06 23  1933-03-10 23  224  263  1547  1628  1002       193233_01
 113  193233_02  1933-03-09 23  1933-03-16 23  151  319  1523  1649   990       193233_02
 114  193334_01  1933-12-24 23  1933-12-29 23  168  251  1513  1600   990       193334_01
 115  193334_02  1934-01-17 23  1934-01-22 23  141  172  1445  1561   984       193334_02
 116  193334_03  1934-01-30 23  1934-02-01 23  166  315  1396  1537   985       193334_03
 117  193334_04  1934-02-18 23  1934-02-21 23  128  307  1462  1511  1002       193334_04
 118  193334_05  1934-03-06 01  1934-03-08 01  200  293  1110  1140             193334_05
 119  193334_06  1934-03-09 23  1934-03-12 23  122  165  1391  1528   968       193334_06
 120  193334_07  1934-03-28 01  1934-03-29 01  212  226  1148  1178   992       193334_07
 121  193435_01  1934-08-29 23  1934-09-02 23  210  318  1556  1618   999       193435_01
 122  193435_02  1935-01-14 23  1935-01-20 23  131  206  1339  1382   994       193435_02
 123  193435_03  1935-02-11 01  1935-02-12 13  160  213  1170  1178             193435_03
 124  193435_04  1935-03-06 01  1935-03-15 01  133  253  1106  1241             193435_04
 125  193435_05  1935-03-26 01  1935-03-28 01  140  177  1224  1240   957       193435_05
 126  193435_06  1935-05-24 23  1935-05-26 23  151  296  1541  1596  1002       193435_06
 127  193536_01  1935-07-06 23  1935-07-09 23  176  245  1503  1629  1002       193536_01
 128  193536_02  1936-01-08 01  1936-01-10 01  140  210  1137  1240   966       193536_02
 129  193536_03  1936-02-17 23  1936-02-21 23  157  192  1350  1433   950       193536_03
 130  193536_04  1936-03-17 23  1936-03-23 23  137  270  1528  1618   992       193536_04
 131  193637_01  1937-01-03 01  1937-01-06 01  150  245  1170  1180   980       193637_01
 132  193637_02  1937-02-07 01  1937-02-10 08  150  320  1090  1122             193637_02
 133  193637_04  1937-02-15 23  1937-02-20 10  149  320  1592  1635   980       193637_04
 134  193637_05  1937-03-05 23  1937-03-11 23  093  142  1288  1342   955       193637_05
 135  193738_01  1938-01-16 23  1938-01-22 12  196  320  1505  1606   992       193738_01
 136  193738_02  1938-02-02 01  1938-02-05 01  172  192  1168  1182   997       193738_02
 137  193738_03  1938-02-16 01  1938-02-20 01  160  350  1300  1380   986       193738_03
 138  193738_04  1938-03-22 23  1938-03-31 23  149  279  1501  1587   992       193738_04
 139  193839_01  1939-01-09 01  1939-01-13 01  140  275  1179  1250   954       193839_01
 140  193839_02  1939-01-25 23  1939-01-28 23  220  225  1454  1542   995       193839_02
 141  193839_03  1939-02-08 23  1939-02-15 01  150  255  1095  1252             193839_03
 142  193839_04  1939-03-02 23  1939-03-05 23  233  298  1535  1563   993       193839_04
 143  193839_05  1939-03-18 23  1939-03-27 23  131  195  1358  1482  1002       193839_05
 144  193940_01  1940-01-06 01  1940-01-09 01  170  226  1123  1185   990       193940_01
 145  193940_02  1940-02-11 23  1940-02-20 23  140  218  1390  1560   965       193940_02
 146  193940_03  1940-02-20 23  1940-02-22 23  223  290  1571  1622   990       193940_03
 147  193940_04  1940-03-02 23  1940-03-07 23  130  165  1400  1519  1000       193940_04
 148  193940_05  1940-03-14 23  1940-03-17 23  170  226  1490  1580   987       193940_05
 149  193940_06  1940-03-21 23  1940-03-29 01  136  209  1217  1520   972       193940_06
 150  193940_07  1940-03-30 23  1940-04-07 23  130  199  1444  1550   993       193940_07
 151  194041_01  1941-02-28 01  1941-03-03 01  160  229  1185  1222   940       194041_01
 152  194041_02  1941-04-01 23  1941-04-04 23  126  208  1476  1510  1002       194041_02
 153  194041_03  1941-05-28 23  1941-05-30 23  168  239  1481  1552   997       194041_03
 154  194142_01  1942-01-04 01  1942-01-06 01  165  240  1197  1215   990       194142_01
 155  194142_02  1942-01-26 01  1942-01-29 01  160  248  1152  1172   985       194142_02
 156  194142_03  1942-02-06 23  1942-02-08 23  150  225  1491  1570   999       194142_03
 157  194142_04  1942-02-10 01  1942-02-14 01  172  215  1207  1272   980       194142_04
 158  194142_05  1942-02-15 23  1942-02-21 23  172  260  1439  1599   996       194142_05
 159  194142_06  1942-03-05 23  1942-03-08 23  226  318  1550  1585   996       194142_06
 160  194142_07  1942-03-24 01  1942-03-26 01  183  237  1180  1212   935       194142_07
 161  194243_01  1942-12-21 01  1942-12-22 12  180  190  1190  1230   990       194243_01
 162  194243_02  1942-12-31 23  1943-01-06 23  140  214  1480  1563   970       194243_02
 163  194243_03  1943-01-26 23  1943-01-30 23  138  228  1504  1541   990       194243_03
 164  194243_04  1943-02-09 23  1943-02-13 23  146  231  1482  1520   996       194243_04
 165  194243_05  1943-02-11 01  1943-02-14 01  185  220  1122  1170   985       194243_05
 166  194243_06  1943-02-23 01  1943-03-02 01  165  280  1123  1180   980       194243_06
 167  194243_07  1943-03-01 23  1943-03-07 01  155  235  1169  1295   960       194243_07
 168  194243_08  1943-03-13 01  1943-03-14 19  200  317  1095  1160   985       194243_08
 169  194243_09  1943-04-15 01  1943-04-16 01  181  208  1178  1187   990       194243_09
 170  194344_01  1943-12-14 23  1943-12-16 23  128  164  1385  1466   999       194344_01
 171  194344_02  1944-01-29 01  1944-01-30 01  165  170  1240  1250   998       194344_02
 172  194344_03  1944-03-03 23  1944-03-15 01  130  320  1113  1313   970       194344_03
 173  194344_04  1944-03-05 23  1944-03-09 23  170  270  1512  1590   996       194344_04
 174  194344_05  1944-03-24 23  1944-03-28 08  150  196  1461  1530   993       194344_05
 175  194445_01  1945-01-28 23  1945-02-06 01  132  327  1135  1268   950       194445_01
 176  194445_02  1945-01-29 23  1945-02-02 23  140  220  1446  1570   996       194445_02
 177  194445_03  1945-03-01 01  1945-03-08 01  144  214  1140  1210   945       194445_03
 178  194445_04  1945-03-03 23  1945-03-07 23  152  260  1419  1600   997       194445_04
 179  194445_05  1945-03-12 23  1945-03-18 23  138  158  1415  1512   994       194445_05
 180  194445_06  1945-03-24 01  1945-03-25 01  190  244  1109  1140   995       194445_06
 181  194445_07  1945-04-04 01  1945-04-07 07  115  320  1035  1127   995       194445_07
 182  194546_01  1945-12-28 01  1946-01-02 01  147  250  1095  1250   980       194546_01
 183  194546_02  1946-01-15 23  1946-01-19 23  150  228  1481  1503   999       194546_02
 184  194546_03  1946-01-29 01  1946-01-31 01  179  220  1170  1230   982       194546_03
 185  194546_04  1946-02-06 23  1946-02-11 23  127  174  1363  1504   996       194546_04
 186  194546_05  1946-02-07 01  1946-02-12 01  197  200  1125  1195   995       194546_05
 187  194546_06  1946-02-27 23  1946-03-07 23  141  269  1459  1620   982       194546_06
 188  194546_07  1946-03-11 01  1946-03-12 01  190  225  1135  1163   998       194546_07
 189  194546_08  1946-03-19 23  1946-03-25 23  160  310  1531  1612   988       194546_08
 190  194546_09  1946-03-31 23  1946-04-04 23  150  300  1530  1587   998       194546_09
 191  194647_01  1946-12-17 01  1946-12-19 07  140  196  1200  1257   985       194647_01
 192  194647_02  1946-12-29 23  1947-01-03 23  160  248  1479  1620   999       194647_02
 193  194647_03  1947-01-19 23  1947-01-23 23  140  287  1509  1599   990       194647_03
 194  194647_04  1947-02-01 23  1947-02-14 23  126  270  1459  1545   996       194647_04
 195  194647_05  1947-02-05 01  1947-02-08 01  152  230  1100  1217   970       194647_05
 196  194647_07  1947-03-11 01  1947-03-15 01  160  213  1060  1182   970       194647_07
 197  194647_08  1947-03-17 01  1947-03-19 01  140  188  1220  1232   992       194647_08
 198  194647_09  1947-03-25 01  1947-03-26 12  189  320  1050  1080             194647_09
 199  194748_01  1947-12-28 01  1947-12-31 01  160  230  1190  1216   960       194748_01
 200  194748_02  1948-01-06 05  1948-01-07 23  104  155  1415  1470   989       194748_02
 201  194748_03  1948-01-10 23  1948-01-15 23  150  240  1395  1610   995       194748_03
 202  194748_04  1948-02-18 01  1948-02-23 01  140  307  1153  1235   950       194748_04
 203  194748_05  1948-02-19 23  1948-02-24 23  128  231  1340  1386   996       194748_05
 204  194748_06  1948-03-08 23  1948-03-11 01  148  220  1193  1252   985       194748_06
 205  194748_07  1948-03-19 23  1948-03-25 23  107  280  1528  1610   990       194748_07
 206  194748_08  1948-04-09 01  1948-04-14 01  140  168  1150  1235  1000       194748_08
 207  194748_09  1948-04-29 23  1948-05-01 23  228  249  1500  1531  1002       194748_09
 208  194748_10  1948-01-10 12  1948-01-16 00  174  239  1574  1696             194748_10
 209  194748_11  1948-01-25 23  1948-01-29 23  173  307  1587  1642             194748_11
 210  194849_01  1948-11-30 23  1948-12-02 23  120  150  1290  1308   995       194849_01
 211  194849_03  1949-01-08 23  1949-01-12 23  136  235  1420  1620   992       194849_03
 212  194849_04  1949-01-24 01  1949-01-26 07  200  320  1116  1165  1000       194849_04
 213  194849_05  1949-02-07 23  1949-02-16 23  140  302  1397  1638   994       194849_05
 214  194849_06  1949-02-11 01  1949-02-13 01  198  201  1090  1121   990       194849_06
 215  194849_07  1949-02-25 23  1949-03-02 23  140  240  1491  1560   972       194849_07
 216  194849_08  1949-03-18 01  1949-03-26 13  145  267  1125  1220   970       194849_08
 217  194849_09  1949-03-24 12  1949-03-28 00  144  263  1574  1781             194849_09
 218  194950_01  1950-01-12 23  1950-01-16 23  140  223  1454  1525   994       194950_01
 219  194950_02  1950-01-13 23  1950-01-18 11  160  280  1390  1500   988       194950_02
 220  194950_03  1950-01-25 23  1950-02-01 01  123  200  1228  1290   990       194950_03
 221  194950_04  1950-02-22 23  1950-02-27 11  156  246  1515  1567   998       194950_04
 222  194950_05  1950-02-27 01  1950-03-01 01  195  195  1015  1135   960       194950_05
 223  194950_06  1950-03-04 23  1950-03-11 23  130  229  1419  1518   992       194950_06
 224  194950_07  1949-12-09 00  1949-12-13 00  150  292  1562  1790             194950_07
 225  195051_01  1950-12-10 02  1950-12-16 01  120  205  1260  1351   992       195051_01
 226  195051_02  1951-01-08 23  1951-01-23 23  158  230  1325  1440   994       195051_02
 227  195051_04  1951-01-24 23  1951-01-29 23  230  260  1509  1550   999       195051_04
 228  195051_05  1951-02-02 01  1951-02-04 01  140  160  0940  1000   994       195051_05
 229  195051_06  1951-02-07 01  1951-02-11 01  110  240  0965  1040   998       195051_06
 230  195051_07  1951-02-14 01  1951-02-18 07  160  237  1060  1225   990       195051_07
 231  195051_09  1951-02-26 01  1951-03-05 01  150  230  1060  1210   980       195051_09
 232  195051_10  1951-03-09 23  1951-03-18 23  122  262  1455  1606   996       195051_10
 233  195051_11  1951-03-23 23  1951-03-31 23  074  236  1525  1627   994       195051_11
 234  195152_01  1952-01-18 01  1952-01-23 01  125  312  1120  1279   975       195152_01
 235  195152_02  1952-01-18 23  1952-01-21 23  114  182  1392  1424   994       195152_02
 236  195152_03  1952-01-23 23  1952-01-24 17  110  118  1590  1650   996       195152_03
 237  195152_04  1952-02-25 01  1952-02-27 01  185  241  1111  1142   980       195152_04
 238  195152_05  1952-04-07 01  1952-04-08 01  170  220  0960  0961  1000       195152_05
 239  195152_06  1952-04-15 23  1952-04-21 23  091  250  1528  1650   924       195152_06
 240  195152_07  1952-01-15 06  1952-01-17 06  112  150  0941  0955             195152_07
 241  195152_08  1952-03-02 12  1952-03-12 00  149  290  1527  1780             195152_08
 242  195253_01  1952-10-26 20  1952-10-28 23  157  229  1500  1609   998       195253_01
 243  195253_02  1952-12-15 11  1952-12-16 23  174  236  1542  1590   998       195253_02
 244  195253_03  1953-01-02 01  1953-01-04 01  170  210  1220  1230  1000       195253_03
 245  195253_04  1953-01-12 23  1953-01-14 23  154  188  1376  1396   995       195253_04
 246  195253_05  1953-01-26 01  1953-01-29 01  085  125  0945  1000   999       195253_05
 247  195253_06  1953-02-19 05  1953-02-22 23  174  260  1550  1587  1002       195253_06
 248  195253_07  1953-03-20 01  1953-03-25 01  149  317  1141  1199   970       195253_07
 249  195253_08  1953-03-21 23  1953-03-22 20  232  250  1512  1530  1009       195253_08
 250  195253_09  1953-04-14 20  1953-04-22 01  103  217  1193  1426   980       195253_09
 251  195354_01  1954-01-02 23  1954-01-07 23  130  303  1420  1623   996       195354_01
 252  195354_02  1954-02-04 23  1954-02-08 11  140  226  1473  1490   990       195354_02
 253  195354_03  1954-02-16 02  1954-02-20 23  160  291  1524  1650   968       195354_03
 254  195354_04  1954-04-08 23  1954-04-10 23  089  137  1313  1329   976       195354_04
 255  195354_05  1954-01-25 00  1954-01-31 00  159  357  1590  1651             195354_05
 256  195354_06  1954-03-01 12  1954-03-05 00  183  293  1509  1663             195354_06
 257  195455_01  1954-12-19 23  1954-12-22 11  122  170  1550  1620  1000       195455_01
 258  195455_02  1954-12-29 01  1955-01-01 13  140  283  1167  1256   945       195455_02
 259  195455_04  1955-01-10 04  1955-01-14 01  162  317  1182  1213   960       195455_04
 260  195455_05  1955-02-13 01  1955-02-15 01  155  247  1095  1126   990       195455_05
 261  195455_06  1955-02-17 23  1955-02-22 01  143  187  1056  1322   960       195455_06
 262  195455_07  1955-03-01 23  1955-03-18 23  155  235  1386  1690   965       195455_07
 263  195455_09  1955-03-21 23  1955-04-05 23  110  300  1515  1655   985       195455_09
 264  195455_10  1955-02-07 06  1955-02-10 06  117  174  0880  0946             195455_10
 265  195556_01  1955-11-12 01  1955-11-18 01  115  215  1193  1240   990       195556_01
 266  195556_02  1955-12-06 23  1955-12-16 05  204  380  1536  1681  1001       195556_02
 267  195556_03  1955-12-09 01  1955-12-11 01  165  180  1150  1182   995       195556_03
 268  195556_05  1956-01-15 23  1956-01-27 23  150  299  1397  1610   968       195556_05
 269  195556_06  1956-01-16 01  1956-01-20 01  146  183  1053  1227   970       195556_06
 270  195556_07  1956-01-28 01  1956-02-04 01  100  208  1045  1216   980       195556_07
 271  195556_09  1956-01-31 23  1956-02-03 23  120  130  1322  1333   994       195556_09
 272  195556_12  1956-02-16 01  1956-03-04 01  152  295  1121  1339   960       195556_12
 273  195556_13  1956-02-23 05  1956-03-07 05  170  213  1430  1755   961       AGNES
 274  195556_16  1956-03-14 23  1956-03-16 23  246  292  1570  1653   998       195556_16
 275  195556_17  1956-03-24 05  1956-03-26 23  115  135  1333  1380   990       195556_17
 276  195556_18  1956-04-02 11  1956-04-08 17  127  420  1540  1740   995       195556_18
 277  195556_20  1956-04-30 01  1956-05-01 01  196  200  1059  1090   990       195556_20
 278  195657_01  1956-08-29 01  1956-08-30 07  247  252  1040  1115  1002       195657_01
 279  195657_02  1956-10-28 01  1956-11-01 01  098  190  0927  0977   999       195657_02
 280  195657_03  1956-11-11 11  1956-11-14 05  120  150  1565  1630  1002       195657_03
 281  195657_06  1956-12-18 05  1956-12-21 23  150  200  1345  1461   982       195657_06
 282  195657_07  1956-12-21 20  1956-12-23 17  223  263  1530  1630   998       195657_07
 283  195657_08  1957-01-04 23  1957-01-06 05  196  212  1556  1635   990       195657_08
 284  195657_09  1957-01-10 17  1957-01-12 03  210  215  1510  1675   994       195657_09
 285  195657_11  1957-01-15 23  1957-01-22 23  113  252  1575  1630   998       195657_11
 286  195657_12  1957-01-19 01  1957-01-22 01  147  183  1100  1207   995       195657_12
 287  195657_13  1957-01-26 01  1957-02-09 01  090  210  0920  1060   943       195657_13
 288  195657_14  1957-01-31 23  1957-02-19 05  122  322  1402  1606   953       195657_14
 289  195657_15  1957-02-11 01  1957-02-17 22  143  320  1163  1233   960       195657_15
 290  195657_17  1957-03-01 23  1957-03-10 23  110  186  1285  1408   993       195657_17
 291  195657_19  1957-03-25 01  1957-03-27 01  165  170  1060  1102   980       195657_19
 292  195657_20  1957-04-07 05  1957-04-11 23  095  118  1345  1415   994       195657_20
 293  195758_02  1957-12-16 01  1957-12-19 01  163  193  1173  1194  1004       195758_02
 294  195758_04  1958-01-11 05  1958-01-16 17  110  170  1210  1374  1004       195758_04
 295  195758_06  1958-01-16 01  1958-01-22 01  142  255  1161  1216   990       195758_06
 296  195758_07  1958-02-08 01  1958-02-15 04  083  182  0875  1010   997       195758_07
 297  195758_08  1958-02-12 05  1958-02-24 23  130  210  1386  1586   994       195758_08
 298  195758_09  1958-02-13 07  1958-02-16 01  143  185  1056  1076   993       195758_09
 299  195758_10  1958-03-01 01  1958-03-05 07  160  260  1140  1220   960       195758_10
 300  195758_11  1958-03-11 05  1958-03-19 23  120  239  1550  1770   996       195758_11
 301  195758_12  1958-03-14 01  1958-03-16 13  190  243  1141  1196   950       195758_12
 302  195758_13  1958-03-31 05  1958-04-02 05  174  204  1460  1508   968       195758_13
 303  195758_14  1958-04-02 05  1958-04-07 13  100  130  1555  1650   998       195758_14
 304  195758_15  1958-04-09 05  1958-04-09 23  125  140  1520  1530  1000       195758_15
 305  195758_16  1958-04-11 23  1958-04-15 23  103  150  1354  1390   990       195758_16
 306  195758_17  1958-04-17 23  1958-04-23 23  120  217  1540  1610   998       195758_17
 307  195758_18  1958-06-04 05  1958-06-12 17  090  294  1570  1636   986       195758_18
 308  195758_19  1958-06-18 23  1958-06-22 11  270  330  1550  1670  1006       195758_19
 309  195758_20  1958-02-07 18  1958-02-13 06  080  174  0879  0934             195758_20
 310  195758_21  1958-03-29 06  1958-03-31 06  082  142  0945  0967             195758_21
 311  195859_01  1958-11-17 01  1958-11-22 22  090  217  0901  0990   992       195859_01
 312  195859_03  1958-12-30 01  1958-12-31 01  129  140  1053  1075  1000       195859_03
 313  195859_04  1959-01-04 01  1959-01-22 23  139  222  1238  1617   980       BERTHA
 314  195859_05  1959-01-16 05  1959-01-21 23  140  286  1496  1664   976       BEATRICE
 315  195859_07  1959-02-08 01  1959-02-12 01  100  149  0952  0997  1001       195859_07
 316  195859_08  1959-02-11 11  1959-02-17 05  153  244  1474  1572   948       CONNIE
 317  195859_09  1959-03-05 01  1959-03-11 01  130  310  1010  1088   990       195859_09
 318  195859_10  1959-03-06 17  1959-03-12 23  110  195  1553  1645   988       195859_10
 319  195859_11  1959-03-16 01  1959-03-22 01  123  230  1042  1150   980       195859_11
 320  195859_12  1959-04-01 23  1959-04-11 01  100  200  1160  1350   990       195859_12
 321  195859_13  1959-02-06 18  1959-02-10 06  083  190  0900  0990             195859_13
 322  195960_01  1959-12-19 23  1959-12-27 23  060  182  1554  1653   988       195960_01
 323  195960_02  1959-12-24 21  1959-12-31 23  122  189  1325  1640   985       195960_02
 324  195960_03  1960-01-22 01  1960-01-28 01  133  186  1135  1245   980       195960_03
 325  195960_04  1960-02-27 23  1960-03-03 23  167  287  1553  1583   964       195960_04
 326  195960_05  1960-03-03 11  1960-03-09 11  135  187  1465  1545  1000       195960_05
 327  195960_06  1960-03-14 23  1960-03-27 07  124  322  1133  1490   965       195960_06
 328  195960_07  1960-04-01 23  1960-04-06 17  137  198  1552  1650   994       195960_07
 329  195960_08  1960-04-20 23  1960-04-27 01  090  130  1231  1290   980       195960_08
 330  196061_01  1960-12-14 23  1960-12-24 01  081  170  1208  1309   969       196061_01
 331  196061_02  1960-12-29 01  1961-01-03 01  070  170  0940  0980  1000       196061_02
 332  196061_03  1961-01-02 23  1961-01-06 23  182  225  1465  1540   993       196061_03
 333  196061_05  1961-01-14 23  1961-01-27 01  100  318  1149  1350   920       196061_05
 334  196061_06  1961-01-26 23  1961-02-01 23  143  317  1576  1620   998       196061_06
 335  196061_08  1961-02-09 01  1961-02-13 01  150  245  1103  1170   985       196061_08
 336  196061_09  1961-02-12 01  1961-02-17 01  090  190  0970  0990   990       196061_09
 337  196061_10  1961-02-20 01  1961-03-02 01  122  311  1079  1160   970       196061_10
 338  196061_11  1961-02-21 01  1961-03-01 22  120  140  0950  1050   990       196061_11
 339  196061_12  1961-02-24 01  1961-03-03 18  112  320  1137  1292   950       196061_12
 340  196061_13  1961-03-02 02  1961-03-08 17  110  197  1365  1613   988       196061_13
 341  196061_14  1961-03-15 06  1961-03-21 08  128  316  1588  1653   984       196061_14
 342  196061_15  1960-07-15 00  1960-07-21 00  050  374  0925  1130   995       196061_15
 343  196162_01  1961-11-28 23  1961-12-02 23  113  225  1565  1653   978       196162_01
 344  196162_02  1961-12-22 17  1961-12-25 11  167  253  1487  1597  1000       196162_02
 345  196162_03  1962-01-08 01  1962-01-13 01  150  200  1180  1260   994       196162_03
 346  196162_04  1962-01-20 01  1962-01-31 01  120  259  1036  1226   980       196162_04
 347  196162_05  1962-01-27 23  1962-02-11 01  133  250  1029  1297   985       196162_05
 348  196162_06  1962-02-14 01  1962-02-22 01  178  201  1050  1187   993       196162_06
 349  196162_07  1962-02-16 05  1962-02-19 11  129  142  1369  1425   997       196162_07
 350  196162_08  1962-03-02 01  1962-03-06 01  150  160  0930  1010  1001       196162_08
 351  196263_03  1962-12-24 02  1962-12-26 23  165  183  1505  1583   995       196263_03
 352  196263_04  1962-12-29 23  1962-12-31 23  177  260  1508  1547   978       ANNIE
 353  196263_08  1963-01-07 01  1963-01-14 01  120  250  1087  1170   980       196263_08
 354  196263_10  1963-01-12 17  1963-01-14 23  133  195  1480  1500  1000       196263_10
 355  196263_11  1963-01-19 01  1963-01-30 01  130  290  1110  1240   987       196263_11
 356  196263_12  1963-01-21 23  1963-01-23 23  155  232  1543  1612  1000       196263_12
 357  196263_14  1963-01-21 01  1963-01-24 19  110  170  1010  1070  1000       196263_14
 358  196263_16  1963-01-25 23  1963-01-26 23  189  208  1490  1517  1005       196263_16
 359  196263_17  1963-01-29 01  1963-02-02 12  090  160  0870  0910   996       196263_17
 360  196263_18  1963-02-03 17  1963-02-06 23  160  320  1515  1613   994       196263_18
 361  196263_19  1963-02-04 01  1963-02-10 01  180  305  1140  1273   940       196263_19
 362  196263_20  1963-02-12 01  1963-02-17 01  157  260  1060  1231   990       196263_20
 363  196263_21  1963-02-15 23  1963-02-19 23  150  318  1556  1670   960       196263_21
 364  196263_22  1963-02-15 23  1963-02-19 07  131  262  1130  1275   995       196263_22
 365  196263_23  1963-03-01 06  1963-03-02 23  142  198  1590  1664   998       196263_23
 366  196263_24  1963-03-14 17  1963-03-16 05  227  257  1517  1537  1002       196263_24
 367  196263_25  1963-03-15 01  1963-03-24 01  100  230  0920  1010   990       196263_25
 368  196263_26  1963-03-22 05  1963-03-25 05  147  196  1466  1535  1002       196263_26
 369  196263_27  1963-03-25 05  1963-03-26 11  120  170  1390  1420   996       196263_27
 370  196263_28  1963-03-26 17  1963-03-30 17  107  225  1378  1449   998       196263_28
 371  196263_29  1963-03-30 23  1963-04-02 05  223  248  1530  1650   996       196263_29
 372  196263_30  1963-04-10 05  1963-04-14 17  110  146  1320  1373   984       196263_30
 373  196263_31  1963-04-20 23  1963-04-25 23  120  272  1538  1623   996       196263_31
 374  196263_32  1963-05-02 23  1963-05-08 23  130  302  1527  1629  1000       196263_32
 375  196263_33  1963-05-05 23  1963-05-07 23  258  317  1521  1530  1009       196263_33
 376  196263_34  1963-05-07 05  1963-05-08 05  252  309  1527  1534  1000       196263_34
 377  196263_35  1963-05-08 11  1963-05-13 23  129  240  1580  1655  1000       196263_35
 378  196263_37  1963-06-22 05  1963-06-24 23  154  242  1544  1700  1001       196263_37
 379  196263_38  1963-06-23 05  1963-07-03 23  190  367  1584  1691   986       196263_38
 380  196364_02  1964-01-06 07  1964-01-13 01  150  210  1213  1277   950       BESSIE
 381  196364_03  1964-01-06 23  1964-01-14 08  102  317  1364  1561   983       AUDREY
 382  196364_04  1964-01-26 23  1964-02-01 23  140  247  1513  1622   992       BERTHE
 383  196364_05  1964-01-27 23  1964-02-07 23  092  195  1310  1418   974       DORA
 384  196364_06  1964-02-25 01  1964-03-02 01  050  350  0880  1070   990       EVA
 385  196364_07  1964-03-06 23  1964-03-10 23  100  150  1295  1371   996       CARMEN
 386  196364_08  1964-03-07 01  1964-03-17 01  130  300  0910  1060   980       HAZEL
 387  196364_09  1964-03-14 05  1964-03-17 23  163  206  1496  1556   999       GERTIE
 388  196364_10  1964-03-23 23  1964-04-01 16  130  314  1120  1290   960       KATIE
 389  196364_11  1964-03-31 23  1964-04-04 23  162  270  1592  1650   960       HENRIETTA
 390  196465_01  1964-11-02 01  1964-11-10 01  090  150  1048  1179   996       RITA
 391  196465_02  1964-11-30 23  1964-12-08 23  107  200  1316  1528   992       FLORA
 392  196465_04  1965-01-04 01  1965-01-05 01  128  128  1061  1103  1000       UNA
 393  196465_05  1965-01-12 05  1965-01-20 23  107  169  1383  1559   996       196465_05
 394  196465_07  1965-01-25 23  1965-02-05 17  116  315  1330  1645   986       JUDY
 395  196465_09  1965-02-21 23  1965-03-01 11  110  157  1303  1377   994       MARIE
 396  196465_10  1965-02-25 12  1965-03-03 01  150  251  1035  1100   972       DOLLY
 397  196465_12  1965-03-07 01  1965-03-12 01  164  235  1142  1220   965       JOAN
 398  196465_13  1965-03-21 01  1965-03-25 12  140  320  1083  1180   986       MAVIS
 399  196465_14  1965-03-23 23  1965-04-01 01  100  178  1050  1300   972       RUTH
 400  196566_02  1965-12-20 23  1966-01-02 01  100  247  1200  1390   990       AMANDA
 401  196566_04  1965-12-25 10  1966-01-01 01  090  139  0872  1000   997       CAROL-DAISY
 402  196566_07  1966-01-15 23  1966-01-20 01  142  182  1262  1288   995       JOY
 403  196566_08  1966-02-05 01  1966-02-10 01  150  200  1130  1169   990       LISA
 404  196566_10  1966-02-09 00  1966-02-13 01  110  176  1240  1350   993       BETTY
 405  196566_11  1966-02-23 23  1966-03-01 23  138  241  1490  1647   990       CONNIE
 406  196566_12  1966-02-24 01  1966-03-08 01  110  247  0648  0990   992       MARTHA
 407  196566_13  1966-03-14 01  1966-03-24 01  100  190  0600  1010   988       NANCY
 408  196566_14  1966-03-21 10  1966-03-28 01  100  290  0898  1010   987       NELLIE
 409  196566_15  1966-03-22 01  1966-03-24 01  132  160  1068  1070  1001       SANDRA
 410  196566_16  1966-03-29 01  1966-04-04 01  129  273  1150  1190   965       SHIRLEY
 411  196667_01  1966-11-13 23  1966-11-18 23  086  150  1573  1611   998       ANGELA
 412  196667_04  1966-12-26 01  1966-12-31 01  110  220  0910  1000   995       DELILAH
 413  196667_05  1967-01-06 01  1967-01-09 01  143  192  1052  1140   965       EDITH
 414  196667_06  1967-01-16 01  1967-01-23 01  147  288  1122  1230   965       ELSIE
 415  196667_07  1967-01-22 23  1967-01-31 23  127  352  1527  1638   945       DINAH
 416  196667_08  1967-02-17 02  1967-02-21 23  129  288  1526  1637   987       BARBARA
 417  196667_09  1967-03-04 01  1967-03-06 01  170  208  1216  1240   992       GWEN
 418  196667_10  1967-03-13 05  1967-03-19 17  147  320  1467  1640   996       ELAINE
 419  196667_11  1967-03-13 23  1967-03-19 10  121  159  1360  1389   993       CYNTHIA
 420  196667_12  1967-03-13 02  1967-03-17 08  150  280  1542  1630   996       DULCIE
 421  196667_13  1967-03-26 05  1967-04-05 11  103  317  1553  1608   982       GLENDA
 422  196667_14  1967-04-06 01  1967-04-15 01  100  380  0850  1190   970       LAURA
 423  196768_01  1967-11-10 02  1967-11-16 05  059  207  1502  1670   980       ANNIE
 424  196768_02  1967-12-06 05  1967-12-10 20  155  294  1492  1649   996       196768_02
 425  196768_03  1967-12-09 17  1967-12-12 05  219  275  1545  1589   997       196768_03
 426  196768_05  1968-01-11 01  1968-01-17 01  110  150  1089  1203   998       BETSY
 427  196768_06  1968-01-13 23  1968-01-18 23  129  215  1591  1670   990       BRENDA
 428  196768_07  1968-01-19 00  1968-01-26 01  120  246  1110  1323   988       BERTHA
 429  196768_08  1968-01-19 07  1968-01-24 01  070  190  0920  0970   970       DOREEN
 430  196768_10  1968-01-25 23  1968-01-27 23  143  179  1385  1400   986       DIXIE
 431  196768_11  1968-02-02 23  1968-02-05 05  145  160  1349  1397  1002       196768_11
 432  196768_12  1968-02-05 01  1968-02-07 01  191  250  1122  1182  1001       ELLA
 433  196768_13  1968-02-12 23  1968-02-16 20  162  223  1385  1429   996       196768_13
 434  196768_14  1968-02-13 01  1968-02-26 06  150  322  0727  1221   995       GINA
 435  196768_15  1968-02-19 23  1968-02-27 01  130  170  1280  1390   997       BONNIE
 436  196768_17  1968-02-25 05  1968-02-28 23  134  143  1475  1560  1005       196768_17
 437  196768_18  1968-04-02 23  1968-04-07 08  076  218  1563  1637   980       GISELE
 438  196869_01  1968-11-22 23  1968-11-28 23  092  200  1512  1540   998       ADELE
 439  196869_03  1968-12-16 04  1968-12-22 22  120  190  0843  0907   975       AMBER
 440  196869_04  1968-12-19 01  1968-12-24 01  130  130  1062  1080  1001       BEATIE
 441  196869_05  1968-12-27 01  1968-12-30 01  113  140  1075  1127   995       CHERI
 442  196869_07  1969-01-23 23  1969-01-26 23  130  180  1470  1480  1002       BRIDGET
 443  196869_08  1969-01-27 05  1969-02-04 23  075  320  1551  1676   963       COLLEEN
 444  196869_10  1969-02-15 01  1969-02-20 01  191  207  1130  1230   987       GLADYS
 445  196869_11  1969-02-18 23  1969-02-23 23  170  203  1535  1663   988       IRENE
 446  196869_12  1969-03-01 00  1969-03-09 01  112  210  1230  1367   975       AUDREY
 447  196869_14  1969-04-05 13  1969-04-06 10  290  320  1050  1123   995       LEONIE
 448  196869_15  1969-04-08 11  1969-04-15 23  109  221  1522  1580   996       196869_15
 449  196869_16  1969-04-11 11  1969-04-16 17  106  315  1564  1649   996       196869_16
 450  196869_17  1969-04-25 23  1969-05-02 11  087  175  1492  1655   992       ESTHER
 451  196970_01  1969-11-14 02  1969-11-15 23  201  338  1525  1549  1004       196970_01
 452  196970_02  1970-01-02 23  1970-01-18 11  114  211  1485  1651   962       ADA
 453  196970_03  1970-01-26 23  1970-02-06 01  121  310  1111  1298   970       GLYNIS
 454  196970_04  1970-02-09 16  1970-02-17 01  140  312  1117  1239   970       INGRID
 455  196970_05  1970-02-10 05  1970-02-19 05  114  250  1385  1620   990       DAWN
 456  196970_06  1970-02-10 23  1970-02-12 20  141  157  1545  1610   990       FLORENCE
 457  196970_07  1970-03-01 05  1970-03-04 23  136  167  1470  1531  1000       196970_07
 458  196970_08  1970-03-15 23  1970-03-20 23  137  166  1350  1402   995       CINDY
 459  196970_09  1970-04-13 23  1970-04-18 23  078  100  1540  1640   998       ISA
 460  196970_10  1970-05-04 01  1970-05-09 01  178  207  1079  1178   996       LULU
 461  196970_11  1970-01-03 00  1970-01-17 00  070  288  0603  0970   996       DIANE
 462  196970_12  1970-02-09 01  1970-02-24 01  130  310  0870  1010   960       JUDY
 463  196970_13  1970-03-19 00  1970-03-30 12  080  240  0686  0980   990       KATHY
 464  197071_01  1970-10-31 00  1970-11-10 06  090  200  0790  0925   970       ANDREA
 465  197071_02  1970-11-20 00  1970-11-26 00  080  186  0810  0920   990       CARMEN
 466  197071_03  1970-11-26 06  1970-12-07 01  090  191  1213  1380   970       BEVERLEY-EVA
 467  197071_05  1970-12-19 00  1970-12-24 12  080  209  0902  1013   980       JANET
 468  197071_06  1970-12-26 01  1970-12-31 01  102  225  1103  1210   980       LORIS
 469  197071_07  1971-01-15 00  1971-01-19 00  120  150  0780  0995   970       MYRTLE
 470  197071_08  1971-01-20 00  1971-01-29 00  110  268  0855  0935   980       POLLY
 471  197071_09  1971-01-22 01  1971-01-30 01  141  293  1097  1179   980       RITA
 472  197071_10  1971-01-29 01  1971-02-04 01  140  240  1168  1212   925       SHEILA
 473  197071_11  1971-01-31 23  1971-02-03 23  151  164  1331  1388   984       AGGIE
 474  197071_12  1971-02-10 11  1971-02-17 17  195  280  1519  1616   990       DORA
 475  197071_13  1971-02-10 23  1971-02-16 08  169  210  1442  1536   983       GERTIE
 476  197071_15  1971-02-15 23  1971-02-20 23  167  250  1552  1650   980       IDA
 477  197071_16  1971-02-16 20  1971-02-28 11  135  244  1375  1631   960       FIONA
 478  197071_17  1971-02-19 00  1971-02-24 00  130  198  0765  0938   975       YVONNE
 479  197071_18  1971-03-07 00  1971-03-20 00  100  400  0720  1000   950       MAGGIE-MURIEL
 480  197071_19  1971-03-13 05  1971-03-19 23  124  240  1541  1678   980       LENA
 481  197071_20  1971-03-23 00  1971-03-29 00  170  315  1050  1300   975       MAVIS
 482  197172_02  1971-12-02 00  1971-12-05 09  090  120  1304  1390  1000       KITTY
 483  197172_04  1971-12-03 01  1971-12-11 01  070  187  1183  1248   950       SALLY
 484  197172_05  1971-12-19 23  1971-12-29 23  109  348  1427  1647   952       ALTHEA
 485  197172_06  1972-01-02 23  1972-01-11 23  113  251  1387  1430   993       BRONWYN
 486  197172_07  1972-01-04 23  1972-01-21 20  095  293  1518  1735   940       CARLOTTA
 487  197172_08  1972-02-04 08  1972-02-09 17  163  262  1560  1650   942       WENDY
 488  197172_09  1972-02-05 23  1972-02-13 23  149  276  1498  1581   959       DAISY
 489  197172_10  1972-02-20 00  1972-02-27 00  118  260  0790  1151   950       TESSIE
 490  197172_11  1972-02-24 01  1972-03-04 01  110  169  1080  1257   960       VICKY
 491  197172_12  1972-02-29 00  1972-03-03 00  080  133  0970  1098   994       ANGELA
 492  197172_13  1972-03-20 00  1972-03-29 06  100  233  0898  1050   980       BELINDA
 493  197172_15  1972-03-27 23  1972-04-02 14  110  253  1511  1592   942       EMILY
 494  197172_16  1972-04-06 00  1972-04-14 00  130  260  0810  0940   965       CAROL
 495  197172_17  1972-04-10 17  1972-04-24 05  096  142  1395  1523   990       FAITH
 496  197172_18  1972-04-11 02  1972-04-17 23  128  176  1540  1701   945       GAIL
 497  197172_19  1972-05-07 23  1972-05-11 14  057  102  1492  1555   970       HANNAH
 498  197172_20  1972-05-29 23  1972-06-03 05  050  220  1564  1680   970       IDA
 499  197273_02  1973-01-10 01  1973-01-17 01  120  256  0985  1150   964   80  JEAN
 500  197273_03  1973-01-19 01  1973-01-24 04  141  266  1167  1206   960   90  KERRY
 501  197273_05  1973-01-27 00  1973-01-30 00  137  185  1361  1383   970   70  ADELINE
 502  197273_06  1973-01-28 01  1973-01-31 01  155  180  1201  1230   990   45  MAUD
 503  197273_07  1973-02-24 20  1973-03-01 05  145  343  1549  1606   975   65  KIRSTY
 504  197273_08  1973-02-27 00  1973-03-11 01  111  220  0899  1393   973   65  LEAH
 505  197273_09  1973-02-28 17  1973-03-18 01  081  207  0868  1608   952   90  MADGE
 506  197273_10  1973-03-13 01  1973-03-23 01  120  204  0944  1270   964   80  NELLIE
 507  197273_11  1973-03-19 23  1973-03-25 19  089  164  1309  1373   998   40  BELLA
 508  197273_12  1973-03-26 00  1973-04-01 00  086  160  0865  1035   997   35  PAULA
 509  197273_14  1973-04-29 00  1973-05-09 00  088  469  0790  1283   972   70  MARCELLE
 510  197273_15  1973-04-26 00  1973-04-30 06  050  086  1210  1310   950   80  197273_15
 511  197374_01  1973-11-17 00  1973-11-24 07  108  198  1253  1348   970   80  INES
 512  197374_02  1973-11-21 00  1973-12-08 00  090  190  0850  1042   981   55  ANNIE
 513  197374_03  1973-11-26 01  1973-12-04 01  101  235  1137  1185   973   70  BERYL
 514  197374_04  1973-11-30 23  1973-12-01 23  150  175  1580  1610   995   35  NATALIE
 515  197374_05  1973-12-11 00  1973-12-19 00  099  288  0915  1001   973   70  CECILY
 516  197374_06  1973-12-14 23  1973-12-20 02  139  241  1471  1568   985   55  UNA
 517  197374_07  1973-12-20 00  1973-12-26 00  100  158  0795  0980   964   80  DEIDRE
 518  197374_08  1973-12-29 01  1974-01-05 01  173  234  0960  1192   977   50  ERICA
 519  197374_09  1974-01-06 01  1974-01-13 01  145  193  1055  1253   982   55  FIONA-GWENDA
 520  197374_10  1974-01-17 23  1974-01-21 11  168  237  1478  1646   986   50  VERA
 521  197374_11  1974-01-20 14  1974-01-25 08  177  273  1488  1545   997   50  WANDA
 522  197374_12  1974-02-03 23  1974-02-07 11  199  370  1577  1631   925  110  PAM
 523  197374_13  1974-02-08 11  1974-02-14 02  153  187  1370  1526   990   55  YVONNE
 524  197374_14  1974-02-28 01  1974-03-08 01  172  218  0921  1222   973   70  HELEN
 525  197374_15  1974-03-06 08  1974-03-14 05  189  320  1534  1588   968   75  ZOE
 526  197374_16  1974-03-09 01  1974-03-17 01  123  237  0917  1116   973   70  ISOBEL
 527  197374_17  1974-03-16 01  1974-03-25 01  124  275  0945  1224   964   80  JESSIE
 528  197374_18  1974-03-17 00  1974-03-31 01  126  226  1060  1379   988   50  JENNY
 529  197374_19  1974-03-21 06  1974-03-22 23  213  297  1532  1609   995   40  ALICE
 530  197475_01  1974-10-17 00  1974-10-25 00  088  171  0860  0955   988   50  MARCIA
 531  197475_02  1974-10-28 00  1974-11-04 00  076  132  0766  1051   981   60  NORAH
 532  197475_03  1974-11-06 15  1974-11-16 00  059  135  0800  0969   981   60  PENNY
 533  197475_04  1974-11-29 00  1974-12-09 00  090  124  1110  1302   980   70  SELMA
 534  197475_05  1974-12-20 00  1974-12-26 00  081  140  1299  1350   950   95  TRACY
 535  197475_06  1975-01-12 23  1975-01-15 20  141  180  1587  1650   988   50  FLORA
 536  197475_07  1975-01-14 00  1975-01-19 00  112  193  0764  0921   964   80  ROBYN
 537  197475_08  1975-01-15 18  1975-01-19 23  158  260  1460  1650   982   55  GLORIA
 538  197475_09  1975-02-03 00  1975-02-12 00  110  219  0921  1050   981   55  SHIRLEY
 539  197475_10  1975-02-15 00  1975-02-22 00  166  270  1145  1236   925  115  TRIXIE
 540  197475_12  1975-03-10 18  1975-03-16 00  105  198  1280  1345   980   60  WILMA
 541  197475_13  1975-03-16 00  1975-03-20 12  133  368  0954  1170   982   50  VIDA
 542  197475_14  1975-03-22 01  1975-04-03 01  127  410  1106  1280   929  110  BEVERLEY
 543  197475_15  1975-04-06 12  1975-04-09 00  103  128  1330  1370   990   40  AMELIA
 544  197475_16  1975-04-20 01  1975-04-26 01  090  275  1006  1115   985   50  CLARA
 545  197475_17  1975-05-18 18  1975-05-25 00  110  137  0904  1074   992   45  DENISE
 546  197576_01  1975-11-17 00  1975-11-25 00  070  237  0880  1022   973   70  RAY
 547  197576_02  1975-11-30 01  1975-12-10 01  111  269  1169  1284   915  115  JOAN
 548  197576_03  1975-12-02 00  1975-12-10 12  111  159  1330  1425   990   45  KIM
 549  197576_04  1975-12-12 00  1975-12-16 00  093  115  1005  1180   994   40  SUE
 550  197576_06  1976-01-13 23  1976-01-21 23  154  279  1421  1674   961   85  DAVID
 551  197576_07  1976-01-15 01  1976-01-28 01  138  318  1100  1219   950   90  VANESSA
 552  197576_08  1976-01-29 23  1976-02-09 11  125  259  1336  1620   989   35  ALAN
 553  197576_09  1976-02-13 17  1976-02-22 05  137  249  1483  1600   972   70  BETH
 554  197576_10  1976-02-22 16  1976-02-27 16  163  305  1123  1250   973   75  WALLY
 555  197576_11  1976-02-25 17  1976-03-05 00  103  359  1544  1589   954   90  COLIN
 556  197576_12  1976-03-02 01  1976-03-13 01  135  173  0830  1154   988   50  ALICE
 557  197576_13  1976-03-03 20  1976-03-06 11  170  304  1455  1557   988   50  DAWN
 558  197576_15  1976-04-25 00  1976-04-29 12  082  320  1476  1640   970   90  WATOREA
 559  197576_16  1976-05-03 00  1976-05-09 00  073  186  0875  0920   991   45  CAROL
 560  197576_17  1976-02-24 00  1976-03-06 00  060  418  1541  1587             HOPE
 561  197576_18  1976-03-14 00  1976-03-17 06  111  133  1180  1306   995   40  LINDA
 562  197677_01  1976-12-15 00  1976-12-21 00  084  170  0804  1030   985   55  HARRY
 563  197677_02  1976-12-15 23  1976-12-20 23  126  207  1377  1408   945  100  TED
 564  197677_03  1977-01-06 00  1977-01-13 00  112  173  1125  1249   970   80  IRENE
 565  197677_04  1977-01-16 23  1977-01-19 11  154  180  1502  1605   994   35  JUNE
 566  197677_05  1977-01-29 20  1977-01-31 23  152  196  1461  1484   992   40  KEITH
 567  197677_06  1977-02-08 20  1977-02-11 23  150  158  1480  1502   996   35  LILY
 568  197677_07  1977-02-09 17  1977-02-13 08  152  166  1565  1601   994   40  MILES
 569  197677_08  1977-02-12 02  1977-02-13 05  155  158  1446  1477   998   40  NANCY
 570  197677_09  1977-02-13 00  1977-02-20 00  090  140  0800  0994   975   70  JACK
 571  197677_10  1977-03-02 01  1977-03-09 16  139  241  1110  1245   970   80  KAREN
 572  197677_11  1977-03-06 17  1977-03-10 02  127  222  1401  1481   984   45  OTTO
 573  197677_12  1977-03-24 01  1977-03-28 01  154  218  1187  1248   960   90  LEO
 574  197677_13  1977-04-28 00  1977-05-03 00  083  111  1278  1349   973   70  VERNA
 575  197778_01  1977-11-06 23  1977-11-11 23  085  185  1525  1604   990   50  TOM
 576  197778_02  1977-12-13 00  1977-12-21 00  076  151  0780  0965   990   50  SAM
 577  197778_03  1978-01-10 00  1978-01-20 00  106  252  0880  1290   954   90  TRUDY
 578  197778_04  1978-01-27 01  1978-02-03 01  154  236  1096  1214   964   80  VERN
 579  197778_05  1978-02-25 00  1978-02-27 11  111  170  1364  1440   987   50  GWEN
 580  197778_06  1978-03-16 00  1978-03-29 00  130  377  0838  0959   945  100  WINNIE
 581  197778_07  1978-03-27 01  1978-04-04 22  137  400  1058  1235   930  110  ALBY
 582  197778_08  1978-04-05 01  1978-04-14 01  110  175  1118  1204   990   50  BRENDA
 583  197778_09  1978-04-04 12  1978-04-11 23  113  210  1363  1540   985   50  HAL
 584  197879_01  1978-12-29 06  1979-01-03 11  118  155  1370  1455   980   80  PETER
 585  197879_02  1979-01-08 11  1979-01-16 06  128  238  1320  1448   986   50  GRETA
 586  197879_03  1979-01-08 17  1979-01-11 23  193  206  1485  1626   988   50  GORDON
 587  197879_04  1979-02-11 23  1979-03-03 16  103  225  1138  1609   955   85  ROSA
 588  197879_05  1979-02-12 23  1979-03-04 23  081  215  1474  1701   945  100  KERRY
 589  197879_06  1979-03-07 00  1979-03-14 06  135  324  1120  1239   936  105  HAZEL
 590  197879_07  1979-03-16 00  1979-03-21 00  126  241  0807  0919   988   50  IVAN
 591  197879_08  1979-04-06 05  1979-04-15 17  105  132  1367  1528   995   35  STAN
 592  197879_09  1979-04-06 00  1979-04-20 00  117  375  0692  1330   945   95  IDYLLE
 593  197879_10  1979-04-08 00  1979-04-14 00  072  189  0911  1003   988   50  JANE
 594  197879_11  1979-05-02 00  1979-05-12 00  043  120  0818  0947   986   50  KEVIN
 595  197980_02  1979-12-09 00  1979-12-19 00  080  122  0764  0930   930  110  VIOLA
 596  197980_03  1979-12-23 00  1980-01-01 00  098  165  0812  0949   973   70  WILF
 597  197980_04  1980-01-02 18  1980-01-08 18  149  314  1366  1602   983   50  PAUL
 598  197980_05  1980-01-04 12  1980-01-12 18  145  314  1168  1213   915  115  AMY
 599  197980_06  1980-01-18 00  1980-01-27 00  101  324  0923  1304   930  100  BRIAN
 600  197980_07  1980-01-21 00  1980-01-29 00  097  237  0897  1133   980   60  CLARA
 601  197980_08  1980-01-27 00  1980-02-04 00  105  250  1170  1294   930  110  DEAN
 602  197980_09  1980-02-11 00  1980-02-18 18  181  228  1504  1604   980   55  RUTH
 603  197980_10  1980-02-12 00  1980-02-18 00  154  226  1198  1309   930  110  ENID
 604  197980_11  1980-02-20 00  1980-02-28 00  116  256  0868  1030   930  105  FRED
 605  197980_12  1980-02-21 18  1980-02-28 12  170  305  1508  1605   950   90  SIMON
 606  197980_13  1980-03-09 00  1980-03-13 18  120  260  1594  1695   981   55  SINA
 607  197980_14  1980-03-14 00  1980-03-29 00  098  365  0994  1377   955   90  DORIS-GLORIA
 608  197980_15  1980-03-27 12  1980-03-30 12  104  143  1345  1398   995   40  197980_15
 609  198081_01  1980-11-03 00  1980-11-10 12  049  134  0788  1020   940  105  ALICE
 610  198081_03  1980-12-12 00  1980-12-22 12  108  182  0899  1223   940  110  CAROL
 611  198081_04  1980-12-14 00  1980-12-18 00  084  136  0996  1054   985   50  DAN
 612  198081_05  1980-12-20 00  1980-12-27 00  098  119  0930  1174   994   40  EDNA
 613  198081_06  1980-12-22 00  1980-12-31 00  105  238  1043  1270   940  100  FELIX
 614  198081_07  1981-01-12 00  1981-01-21 00  118  246  1082  1179   930  110  MABEL
 615  198081_08  1981-02-08 09  1981-02-13 03  134  202  1260  1536   980   55  EDDIE
 616  198081_09  1981-02-09 00  1981-02-15 09  111  261  1465  1716   975   65  CLIFF
 617  198081_10  1981-02-24 00  1981-03-07 00  159  263  1043  1264   940  105  NEIL
 618  198081_11  1981-02-24 18  1981-03-07 00  144  240  1406  1651   962   80  FREDA
 619  198081_12  1981-03-09 20  1981-03-19 00  114  170  0988  1351   960   85  MAX
 620  198081_13  1981-04-05 00  1981-04-15 00  076  306  0870  1110   940   95  OLGA
 621  198081_14  1981-05-24 03  1981-05-30 00  060  166  0890  0954   973   65  PADDY
 622  198182_03  1981-11-30 23  1981-12-06 05  112  160  1215  1390   996   35  AMELIA
 623  198182_04  1981-12-19 23  1981-12-23 12  112  124  1210  1403   988   45  198182_04
 624  198182_05  1982-01-05 00  1982-01-11 12  103  138  0803  1054   934  105  CHRIS
 625  198182_06  1982-01-10 23  1982-01-22 06  107  332  1135  1405   980   50  BRUNO
 626  198182_07  1982-01-10 18  1982-01-21 09  070  202  0940  1204   986   50  DAPHNE-FIFI
 627  198182_08  1982-01-11 00  1982-01-18 15  118  194  1124  1192   980   55  ERROL
 628  198182_09  1982-01-22 00  1982-02-05 00  169  262  1535  1665   947   95  ABIGAIL
 629  198182_10  1982-01-27 00  1982-02-02 00  157  228  1148  1253   980   55  GRAHAM
 630  198182_11  1982-02-04 05  1982-02-06 05  135  150  1328  1405   996   35  CORAL
 631  198182_12  1982-02-12 00  1982-02-21 00  118  146  1042  1120   988   50  HARRIET
 632  198182_13  1982-02-23 03  1982-03-07 18  132  245  1111  1227   964   80  IAN
 633  198182_14  1982-04-01 02  1982-04-07 00  058  234  1564  1619   945  100  BERNIE
 634  198182_15  1982-04-04 21  1982-04-14 09  112  176  1392  1525   950  110  DOMINIC
 635  198182_17  1982-05-14 18  1982-05-17 00  122  142  1564  1625   992   40  CLAUDIA
 636  198283_01  1983-01-02 00  1983-01-10 18  108  240  1115  1290   947   90  JANE
 637  198283_02  1983-01-14 12  1983-01-23 00  130  226  1469  1581   994   35  DES
 638  198283_03  1983-02-10 18  1983-03-04 12  106  220  1472  1580   935  110  ELINOR
 639  198283_04  1983-02-28 03  1983-03-06 09  131  270  1239  1289   970   65  KEN
 640  198283_05  1983-04-02 00  1983-04-09 00  100  247  1142  1265   980   65  LENA
 641  198283_06  1983-04-21 00  1983-05-02 06  094  168  0811  0960   960   80  NAOMI
 642  198283_07  1983-04-22 06  1983-04-29 12  097  280  0960  1073   975   65  MONTY
 643  198384_01  1983-10-22 00  1983-11-01 00  076  298  0849  0990   968   75  OSCAR
 644  198384_02  1983-11-11 09  1983-11-14 12  084  180  0916  1010   998       PEARL
 645  198384_03  1983-11-26 00  1983-11-30 03  105  215  1128  1244   955   90  QUENTON
 646  198384_04  1983-12-09 06  1983-12-13 03  141  157  1478  1523   990   45  FRITZ
 647  198384_05  1983-12-18 23  1983-12-20 23  061  093  1275  1296   990   50  ESTHER
 648  198384_06  1983-12-21 06  1983-12-24 06  100  138  1133  1236   994   35  198384_06
 649  198384_08  1984-01-02 06  1984-01-10 06  108  203  1019  1084   980   55  TIM
 650  198384_09  1984-01-11 00  1984-01-20 12  144  237  1485  1630   970   70  GRACE
 651  198384_10  1984-01-23 00  1984-01-27 12  090  156  0799  0909   975   65  VIVIENNE
 652  198384_11  1984-02-02 00  1984-02-11 00  096  293  0909  1145   960   80  WILLY
 653  198384_12  1984-02-03 12  1984-02-16 03  094  195  0800  1011   960   80  ANNETTE
 654  198384_13  1984-02-03 18  1984-02-09 18  147  220  1523  1634   980   60  HARVEY
 655  198384_14  1984-02-17 12  1984-02-23 12  162  270  1030  1200   950   95  BOBBY
 656  198384_15  1984-02-20 09  1984-02-26 06  168  249  1476  1589   975   65  INGRID
 657  198384_16  1984-02-25 21  1984-03-03 15  140  232  1138  1237   955   90  CHLOE
 658  198384_17  1984-03-02 02  1984-03-04 23  109  129  1311  1346   980   60  FERDINAND
 659  198384_18  1984-03-05 21  1984-03-11 06  113  161  1280  1514   970   70  JIM
 660  198384_19  1984-03-06 12  1984-03-20 06  086  282  0769  1033   955   90  DARYL
 661  198384_21  1984-03-16 18  1984-03-23 23  120  181  1341  1485   920  120  KATHY
 662  198384_22  1984-04-04 00  1984-04-09 23  135  267  1511  1600   980   60  LANCE
 663  198485_01  1984-12-03 18  1984-12-13 06  053  219  0980  1198   967   65  EMMA
 664  198485_02  1984-12-19 18  1984-12-28 00  164  216  1170  1290   950   85  FRANK
 665  198485_03  1984-12-25 21  1984-12-28 18  144  201  1483  1594   982   55  MONICA
 666  198485_04  1985-01-14 12  1985-01-16 21  160  165  1503  1600   996   60  NIGEL
 667  198485_05  1985-01-16 12  1985-01-19 15  145  164  1456  1608   930  100  ODETTE
 668  198485_06  1985-01-26 00  1985-02-03 00  161  270  1169  1260   973   60  GERTIE
 669  198485_07  1985-02-10 00  1985-02-19 06  142  205  0820  1290   954   80  HUBERT
 670  198485_08  1985-02-11 06  1985-02-22 00  076  315  0942  1055   960   75  ISOBEL
 671  198485_09  1985-02-15 00  1985-02-28 00  090  392  0954  1276   950   75  JACOB
 672  198485_10  1985-02-18 06  1985-02-24 06  118  238  1433  1600   986   50  PIERRE
 673  198485_11  1985-02-20 03  1985-02-23 15  104  169  1353  1437   994   40  REBECCA
 674  198485_12  1985-03-01 00  1985-03-19 00  101  347  0848  1130   920  110  KIRSTY
 675  198485_13  1985-03-06 00  1985-03-11 18  092  284  1172  1298   950   80  LINDSAY
 676  198485_14  1985-03-20 00  1985-03-26 00  134  157  1337  1397   953  105  SANDY
 677  198485_15  1985-03-27 06  1985-04-01 18  128  152  1428  1515   982   55  TANYA
 678  198485_16  1985-04-10 03  1985-04-25 00  068  194  0987  1118   942   85  MARGOT
 679  198485_17  1985-04-12 00  1985-04-14 06  110  142  1290  1334   984   50  GRETEL
 680  198586_01  1985-11-26 00  1985-12-07 12  066  156  1009  1148   945   85  NICHOLAS
 681  198586_02  1986-01-07 00  1986-01-12 00  086  129  0952  0981   986   45  OPHELIA
 682  198586_03  1986-01-18 00  1986-01-21 21  137  185  1077  1146   976   55  PANCHO
 683  198586_04  1986-01-17 02  1986-01-24 06  118  200  1233  1306   982   40  HECTOR
 684  198586_05  1986-01-21 00  1986-01-24 18  165  240  1395  1600   990   45  VERNON
 685  198586_06  1986-01-27 06  1986-02-05 18  126  223  1414  1479   957   85  WINIFRED
 686  198586_07  1986-02-17 00  1986-02-21 00  157  275  1121  1163   968   65  RHONDA
 687  198586_08  1986-02-21 06  1986-02-26 06  134  242  1061  1149   980   60  SELWYN
 688  198586_09  1986-02-25 06  1986-03-01 12  093  200  1044  1303   984   50  TIFFANY
 689  198586_10  1986-03-02 18  1986-03-08 00  148  185  1500  1640   990   45  ALFRED
 690  198586_11  1986-03-02 09  1986-03-09 06  132  287  1093  1244   930  100  VICTOR
 691  198586_12  1986-04-04 18  1986-04-09 18  107  141  0898  1052   974   60  ALISON
 692  198586_13  1986-04-21 00  1986-04-27 00  080  160  1446  1560   970   70  MANU
 693  198586_14  1986-05-04 18  1986-05-15 03  047  320  0893  1318   950   90  BILLY-LILA
 694  198586_15  1986-05-16 18  1986-05-22 00  070  184  1583  1654   960   70  NAMU
 695  198687_01  1987-01-15 00  1987-01-23 06  158  369  1175  1271   950   85  CONNIE
 696  198687_02  1987-01-19 00  1987-01-22 06  122  173  1326  1394   978   60  IRMA
 697  198687_03  1987-01-30 21  1987-02-09 00  146  203  1110  1243   980   50  DAMIEN
 698  198687_04  1987-02-05 18  1987-02-14 00  120  211  1359  1428   970   75  JASON
 699  198687_05  1987-02-22 00  1987-02-27 06  150  238  1208  1250   940  100  ELSIE
 700  198687_06  1987-04-08 00  1987-04-17 00  085  190  1075  1401   976   60  KAY
 701  198687_07  1987-05-21 03  1987-05-27 00  100  199  1555  1677   990   45  BLANCH
 702  198788_01  1988-01-08 00  1988-01-14 06  106  195  1534  1620   980   60  AGI
 703  198788_02  1988-01-28 00  1988-02-02 00  068  188  0950  0995   955   85  FREDERIC
 704  198788_03  1988-02-06 00  1988-02-12 00  128  171  0900  1090   941  100  GWENDA
 705  198788_04  1988-02-21 00  1988-03-01 18  128  210  1473  1591   972   80  CHARLIE
 706  198788_05  1988-05-17 03  1988-05-21 18  068  320  0916  1290   982   50  HERBIE
 707  198889_01  1988-12-12 00  1988-12-19 16  120  267  1152  1283   960   80  ILONA
 708  198889_02  1988-12-28 18  1989-01-01 12  167  184  1475  1600   988   55  DELILAH
 709  198889_03  1989-01-23 06  1989-02-02 06  076  269  0940  1060   990   40  JOHN
 710  198889_04  1989-02-03 12  1989-02-11 12  103  250  1020  1094   955   80  KIRRILY
 711  198889_05  1989-02-13 06  1989-02-19 12  120  130  0890  1020   988   45  LEON
 712  198889_06  1989-02-13 09  1989-02-17 03  191  207  1569  1600   925  110  HARRY
 713  198889_07  1989-03-02 00  1989-03-06 06  155  301  0970  1015   995   35  MARCIA
 714  198889_08  1989-03-25 06  1989-04-01 06  168  345  1084  1208   941  100  NED
 715  198889_09  1989-03-31 12  1989-04-05 12  098  220  1422  1535   935  110  AIVU
 716  198889_10  1989-04-17 00  1989-04-24 12  100  320  1160  1302   905  130  ORSON
 717  198889_11  1989-05-05 00  1989-05-10 06  115  155  1374  1600   990   50  MEENA
 718  198889_12  1989-05-09 21  1989-05-12 12  123  135  1488  1552   998   45  ERNIE
 719  198889_13  1988-11-05 06  1988-11-20 12  059  185  0654  1002         90  BARISAONA
 720  198990_01  1989-11-06 00  1989-11-13 06  066  209  0935  0972   982   60  PEDRO
 721  198990_02  1989-12-13 00  1989-12-20 00  116  222  1340  1610   970   75  FELICITY
 722  198990_03  1990-01-04 18  1990-01-17 12  098  166  0981  1117   988   45  ROSITA
 723  198990_04  1990-01-11 18  1990-01-21 06  120  277  1050  1305   966   70  SAM
 724  198990_05  1990-01-28 06  1990-02-04 12  148  345  1519  1607   980   60  NANCY
 725  198990_06  1990-03-01 18  1990-03-05 12  118  171  1379  1400   990   40  GREG
 726  198990_07  1990-03-02 00  1990-03-06 12  170  393  1089  1230   966   70  VINCENT
 727  198990_08  1990-03-03 18  1990-03-14 12  116  213  0878  0984   976   60  WALTER
 728  198990_09  1990-03-04 00  1990-03-07 06  183  210  1521  1605   970   60  HILDA
 729  198990_10  1990-03-16 00  1990-03-26 12  135  220  1415  1608   965   90  IVOR
 730  198990_11  1990-03-15 00  1990-03-26 00  123  274  0910  1141   927  120  ALEX
 731  198990_12  1990-04-13 00  1990-04-18 06  110  255  0893  0973   990   40  BESSI
 732  198990_13  1990-01-24 01  1990-01-29 06  143  360  1130  1250   976   50  TINA
 733  199091_01  1990-12-10 00  1990-12-12 00  122  135  1275  1289   992   35  LAURENCE
 734  199091_02  1990-12-18 00  1990-12-27 01  115  200  1466  1580   940   90  JOY
 735  199091_03  1991-02-15 06  1991-02-21 18  146  167  1093  1226   976   60  CHRIS
 736  199091_04  1991-02-21 00  1991-02-28 12  181  289  1015  1278   976   60  DAPHNE
 737  199091_05  1991-02-24 06  1991-03-06 00  116  176  1419  1516   980   60  KELVIN
 738  199091_06  1991-02-26 00  1991-03-05 00  094  275  0881  0942   965   70  ELMA
 739  199091_07  1991-03-23 12  1991-03-31 06  105  174  0926  1018   950   90  ERROL
 740  199091_08  1991-04-09 00  1991-04-19 00  088  212  1083  1300   930  100  MARIAN
 741  199091_09  1991-04-15 00  1991-04-21 12  108  370  1019  1155   975   60  FIFI
 742  199091_10  1991-05-07 00  1991-05-12 18  060  200  1539  1694   975   60  LISA
 743  199192_01  1991-12-02 00  1991-12-10 12  050  151  0934  1049   915  110  GRAHAM
 744  199192_02  1992-01-07 00  1992-01-10 12  129  140  1357  1433   980   55  MARK
 745  199192_03  1992-01-10 12  1992-01-14 06  195  276  1576  1600   950   90  BETSY
 746  199192_04  1992-02-15 06  1992-02-20 06  131  355  1555  1685   950   70  DAMAN
 747  199192_05  1992-02-24 18  1992-03-08 12  111  400  0849  1100   930  105  HARRIET
 748  199192_06  1992-02-27 00  1992-03-04 00  116  257  1143  1187   930  105  IAN
 749  199192_07  1992-02-27 12  1992-03-04 06  135  204  1592  1654   925  105  ESAU
 750  199192_08  1992-03-09 06  1992-03-17 12  186  255  1519  1684   940  100  FRAN
 751  199192_09  1992-04-05 00  1992-04-14 06  087  136  1245  1334   945  110  NEVILLE
 752  199192_10  1992-04-07 00  1992-04-17 06  066  178  0822  0996   915  110  JANE
 753  199293_01  1992-12-18 00  1992-12-24 00  107  158  0810  0997   990   40  KEN
 754  199293_02  1992-12-22 12  1993-01-02 18  115  152  1396  1709   960   80  NINA
 755  199293_03  1993-01-24 00  1993-02-02 21  137  169  1069  1209   972   55  LENA
 756  199293_04  1993-02-04 06  1993-02-12 18  140  223  1500  1559   950  100  OLIVER
 757  199293_05  1993-02-24 12  1993-03-01 12  147  223  1577  1622   955   86  POLLY
 758  199293_06  1993-03-12 00  1993-03-21 00  100  241  1554  1617   980   60  ROGER
 759  199293_07  1993-04-06 00  1993-04-13 06  105  195  1010  1086   992   60  MONTY
 760  199293_08  1993-05-13 06  1993-05-15 00  063  096  1487  1560   970   65  ADEL
 761  199394_01  1993-12-15 00  1993-12-18 09  121  241  1207  1222   960   80  NAOMI
 762  199394_02  1993-12-28 06  1994-01-21 18  095  285  1516  1683   920  110  REWA
 763  199394_03  1993-12-28 00  1994-01-09 00  108  174  1094  1297   995   35  OSCAR
 764  199394_04  1994-01-11 00  1994-01-21 00  154  241  0875  1214   950   85  PEARL
 765  199394_05  1994-01-23 00  1994-01-28 12  105  212  0969  1102   955   80  QUENTON
 766  199394_06  1994-01-29 00  1994-01-31 06  112  200  1360  1420   990   45  SADIE
 767  199394_07  1994-02-22 06  1994-02-27 00  079  216  1542  1671   910  115  THEODORE
 768  199394_08  1994-03-12 06  1994-03-22 00  099  322  1039  1190   930  105  SHARON
 769  199394_09  1994-03-28 00  1994-04-03 00  102  117  0943  1150   995   35  TIM
 770  199394_10  1994-04-06 00  1994-04-12 00  102  177  1051  1266   955   85  VIVIENNE
 771  199394_11  1994-04-27 12  1994-05-02 00  068  174  0873  0960   985   50  WILLY
 772  199495_01  1994-12-13 00  1994-12-20 06  125  324  1156  1308   925  100  ANNETTE
 773  199495_02  1995-02-19 00  1995-02-27 06  110  292  1151  1340   925  105  BOBBY
 774  199495_03  1995-03-02 00  1995-03-08 00  133  305  1525  1600   960   85  VIOLET
 775  199495_04  1995-03-04 00  1995-03-06 06  133  175  1376  1403   960   80  WARREN
 776  199495_05  1995-04-03 00  1995-04-08 18  091  176  1209  1281   920  120  CHLOE
 777  199495_06  1995-04-16 18  1995-04-22 12  101  131  1467  1481   945  100  AGNES
 778  199596_01  1995-11-16 01  1995-11-25 01  070  170  0775  0966   915  120  DARYL
 779  199596_02  1995-12-01 22  1995-12-16 16  091  130  0911  1150   990   40  EMMA
 780  199596_03  1995-12-06 04  1995-12-13 07  104  272  1128  1188   950   95  FRANK
 781  199596_04  1995-12-17 07  1995-12-24 13  132  270  1198  1630   965   75  GERTIE
 782  199596_05  1996-01-02 06  1996-01-09 06  147  242  1330  1492   950  100  BARRY
 783  199596_06  1996-01-06 22  1996-01-12 13  102  150  0755  0996   955   80  HUBERT
 784  199596_07  1996-01-25 18  1996-01-29 12  171  198  1465  1576   965   70  CELESTE
 785  199596_09  1996-01-27 01  1996-02-01 01  120  173  1146  1228   995   35  ISOBEL
 786  199596_10  1996-01-27 00  1996-02-08 07  138  255  1057  1402   955   85  JACOB
 787  199596_11  1996-02-13 00  1996-02-18 06  121  157  1400  1510   990   40  DENNIS
 788  199596_12  1996-03-07 10  1996-03-14 01  154  295  1194  1254   935  100  KIRSTY
 789  199596_13  1996-03-07 12  1996-03-13 12  122  176  1363  1460   980   60  ETHEL
 790  199596_14  1996-04-03 13  1996-04-12 04  085  338  1148  1330   925  105  OLIVIA
 791  199596_15  1996-05-01 18  1996-05-06 12  048  208  0890  0976   984   55  JENNA
 792  199697_01  1996-07-09 10  1996-07-13 00  093  153  0920  0953   990   40  LINDSAY
 793  199697_02  1996-10-28 10  1996-11-06 16  086  117  0802  0978   920  110  MELANIE
 794  199697_03  1996-12-12 07  1996-12-16 07  110  197  1235  1245   985   45  NICHOLAS
 795  199697_04  1996-12-13 10  1996-12-19 10  091  156  1079  1176   980   55  OPHELIA
 796  199697_05  1996-12-23 06  1996-12-28 06  111  201  1579  1693   955   85  FERGUS
 797  199697_06  1996-12-24 00  1997-01-03 01  123  186  1053  1395   975   60  PHIL
 798  199697_07  1997-01-01 00  1997-01-10 01  110  275  1185  1333   965   70  RACHEL
 799  199697_08  1997-01-03 18  1997-01-09 00  148  281  1585  1683   935   90  DRENA
 800  199697_09  1997-01-18 07  1997-02-07 07  093  204  0762  0963   915  115  PANCHO
 801  199697_10  1997-02-09 00  1997-02-12 12  121  192  1468  1520   995   45  GILLIAN
 802  199697_11  1997-02-23 00  1997-02-25 00  139  230  1468  1490   994   45  ITA
 803  199697_12  1997-03-06 00  1997-03-25 06  113  207  1448  1560   955   80  JUSTIN
 804  199697_13  1997-05-10 01  1997-05-17 10  110  273  0845  1122   935   95  RHONDA
 805  199697_14  1997-01-07 12  1997-01-13 18  157  261  0819  0928         43  199697_14
 806  199697_15  1997-02-16 06  1997-02-22 12  137  334  1554  1668   975   60  HAROLD
 807  199798_01  1997-11-18 00  1997-11-21 06  112  206  1583  1652   975   60  NUTE
 808  199798_02  1997-12-24 18  1997-12-29 00  109  165  1297  1388   985   45  SID
 809  199798_03  1997-12-25 16  1998-01-02 22  119  197  0883  1118   960   75  SELWYN
 810  199798_04  1998-01-01 12  1998-01-25 06  126  220  1483  1650   940   90  KATRINA
 811  199798_05  1998-01-22 10  1998-02-02 10  150  196  0998  1250   940  100  TIFFANY
 812  199798_06  1998-01-22 00  1998-02-01 00  138  188  1226  1425   976   60  LES
 813  199798_07  1998-02-05 04  1998-02-17 04  129  216  0822  1336   970   85  VICTOR
 814  199798_08  1998-02-25 00  1998-02-26 18  143  176  1383  1391   990   40  MAY
 815  199798_09  1998-03-20 06  1998-03-29 00  107  163  1434  1588   990   50  NATHAN
 816  199899_01  1998-10-07 06  1998-10-10 09  113  149  0930  0965   990   40  ZELIA
 817  199899_02  1998-11-07 01  1998-11-13 10  102  191  0888  0993   955   85  ALISON
 818  199899_03  1998-11-30 23  1998-12-15 00  091  201  1194  1380   920  120  THELMA
 819  199899_04  1998-12-01 22  1998-12-06 07  146  216  1150  1201   965   70  BILLY
 820  199899_05  1998-12-22 19  1998-12-28 04  111  168  0901  1011   975   60  CATHY
 821  199899_06  1999-01-20 00  1999-01-21 18  169  199  1579  1594   987   45  OLINDA
 822  199899_07  1999-01-21 01  1999-01-28 10  128  167  0895  1132   950   85  DAMIEN
 823  199899_08  1999-01-21 00  1999-01-23 18  150  228  1490  1598   985   50  PETE
 824  199899_09  1999-02-09 11  1999-02-12 12  150  167  1443  1489   970   75  RONA
 825  199899_10  1999-03-14 12  1999-03-23 22  118  352  1143  1330   910  120  VANCE
 826  199899_11  1999-03-15 01  1999-03-20 10  131  289  1108  1175   945   90  ELAINE
 827  199899_12  1999-03-25 13  1999-04-01 10  115  180  0894  1190   920  110  FREDERIC
 828  199899_13  1999-04-02 00  1999-04-08 04  110  206  1164  1310   900  120  GWENDA
 829  199899_14  1999-04-19 10  1999-04-21 22  105  159  0891  0936   980   55  HAMISH
 830  199900_01  1999-12-08 22  1999-12-17 10  090  202  0950  1213   980   55  ILSA
 831  199900_02  1999-12-09 07  1999-12-16 01  105  234  1173  1225   915  110  JOHN
 832  199900_03  2000-01-24 04  2000-02-01 22  115  236  0998  1124   975   75  KIRRILY
 833  199900_04  2000-02-01 04  2000-02-08 22  105  177  0890  1155   960   75  LEON
 834  199900_05  2000-02-14 10  2000-02-18 10  137  165  0997  1044   995   35  MARCIA
 835  199900_06  2000-02-25 00  2000-03-11 22  146  370  1131  1517   975   60  STEVE
 836  199900_07  2000-02-28 22  2000-03-10 04  173  240  0878  1230   930  100  NORMAN
 837  199900_08  2000-03-15 04  2000-03-20 04  162  240  1026  1173   985   50  OLGA
 838  199900_09  2000-03-31 00  2000-04-03 06  144  189  1452  1556   980   70  TESSI
 839  199900_10  2000-04-03 00  2000-04-07 00  136  153  1463  1596   975   60  VAUGHAN
 840  199900_11  2000-04-10 22  2000-04-20 08  130  153  0943  1275   915  120  PAUL
 841  199900_12  2000-04-14 04  2000-04-20 22  095  206  1193  1297   930  115  ROSITA
 842  199900_13  2000-03-24 00  2000-04-09 00  145  188  0381  0952   905   50  HUDAH
 843  200001_01  2000-11-28 00  2000-12-14 00  100  218  1208  1400   935  110  SAM
 844  200001_02  2001-01-28 04  2001-01-31 22  142  258  1191  1248   975   60  TERRI
 845  200001_03  2001-02-08 00  2001-02-13 00  105  180  1300  1387   981   40  WINSOME
 846  200001_04  2001-02-11 00  2001-02-15 10  144  178  1108  1217   980   45  VINCENT
 847  200001_05  2001-02-14 00  2001-02-22 00  135  235  1160  1415   988   40  WYLVA
 848  200001_06  2001-02-23 00  2001-03-08 00  155  265  1240  1543   970   65  ABIGAIL
 849  200001_07  2001-04-01 04  2001-04-08 10  095  217  0943  1107   940   80  WALTER
 850  200001_08  2001-04-15 12  2001-04-24 01  075  249  1089  1370   975   60  ALISTAIR
 851  200102_01  2001-10-25 00  2001-10-28 12  074  084  0885  0968   984   50  ALEX
 852  200102_02  2001-11-25 06  2001-12-01 12  070  153  0855  0956   972   60  BESSI
 853  200102_03  2001-12-30 21  2002-01-06 06  115  188  1374  1392   980   50  BERNIE
 854  200102_04  2002-02-02 04  2002-02-07 04  131  223  1190  1222   915  110  CHRIS
 855  200102_05  2002-02-10 12  2002-02-12 06  195  240  1555  1600   965   70  CLAUDIA
 856  200102_06  2002-03-03 00  2002-03-05 12  146  195  1542  1605   985   50  DES
 857  200102_07  2002-04-06 00  2002-04-11 18  104  240  0879  1015   945   90  DIANNE
 858  200102_08  2002-04-07 18  2002-04-15 00  067  159  1013  1332   985   50  BONNIE
 859  200102_09  2002-05-08 03  2002-05-14 00  053  096  0954  0979   995   35  ERROL
 860  200102_10  2002-05-25 00  2002-05-29 18  075  104  1534  1559   990   40  UPIA
 861  200203_01  2003-01-04 00  2003-01-25 12  100  219  1180  1376   988   50  200203_01
 862  200203_02  2003-02-03 00  2003-02-13 00  116  219  0909  1174   935   95  FIONA
 863  200203_03  2003-02-26 00  2003-03-01 12  170  221  1195  1220   985   40  GRAHAM
 864  200203_04  2003-03-01 18  2003-03-11 00  134  354  1055  1160   985   45  HARRIET
 865  200203_05  2003-03-01 12  2003-03-12 06  120  210  1475  1600   960   80  ERICA
 866  200203_06  2003-03-07 12  2003-03-12 21  106  156  1289  1414   976   55  CRAIG
 867  200203_07  2003-03-31 00  2003-04-08 09  077  215  1127  1240   900  125  INIGO
 868  200203_08  2003-01-04 00  2003-01-06 00  100  126  1347  1364   988   50  200203_08
 869  200203_09  2003-06-05 00  2003-06-05 18  073  079  1529  1550   993   40  EPI
 870  200304_01  2003-12-06 00  2003-12-12 06  070  149  0930  0994   950   85  JANA
 871  200304_02  2003-12-16 00  2003-12-23 00  093  155  1305  1404   970   65  DEBBIE
 872  200304_03  2004-01-28 12  2004-02-01 12  072  189  0915  0961   985   50  LINDA
 873  200304_04  2004-02-10 06  2004-02-15 00  138  212  1263  1467   985   50  FRITZ
 874  200304_05  2004-02-25 06  2004-03-03 00  177  254  1152  1245   935  100  MONTY
 875  200304_06  2004-02-27 00  2004-03-04 00  127  150  1261  1415   991   35  EVAN
 876  200304_07  2004-03-08 00  2004-03-10 12  128  156  0900  0912   985   50  NICKY
 877  200304_08  2004-03-12 00  2004-03-28 12  105  215  1199  1460   910  115  FAY
 878  200304_09  2004-03-20 18  2004-03-23 00  163  226  1493  1600   985   50  GRACE
 879  200304_11  2004-03-21 00  2004-03-28 06  120  196  0890  1038   940   90  OSCAR
 880  200405_01  2004-08-30 06  2004-09-05 12  028  099  0877  0932   990   45  PHOEBE
 881  200405_02  2004-12-30 00  2005-01-10 00  129  185  1198  1406   985   45  RAYMOND
 882  200405_03  2005-01-06 06  2005-01-10 06  090  167  0976  1011   985   50  SALLY
 883  200405_04  2005-01-22 00  2005-01-25 12  135  165  1027  1124   990   45  TIM
 884  200405_05  2005-02-03 12  2005-02-07 18  130  169  1358  1400   967   75  HARVEY
 885  200405_06  2005-02-04 00  2005-02-09 12  145  165  1161  1180   990   35  VIVIENNE
 886  200405_07  2005-03-04 00  2005-03-16 21  112  153  1264  1490   924  125  INGRID
 887  200405_08  2005-03-08 06  2005-03-14 12  118  214  1060  1202   960   75  WILLY
 888  200405_09  2005-04-02 00  2005-04-05 12  098  134  0901  1012   960   75  ADELINE
 889  200405_10  2005-01-08 12  2005-01-18 00  180  281  1561  1605   955   80  KERRY
 890  200405_11  2005-04-13 00  2005-04-15 12  080  110  1380  1490   990       200405_11
 891  200506_01  2005-11-18 06  2005-11-24 00  045  143  0898  0955   928  100  BERTIE
 892  200506_05  2006-01-06 06  2006-01-10 18  113  236  1162  1291   960   75  CLARE
 893  200506_06  2006-01-17 00  2006-01-23 00  153  221  1117  1256   976   55  DARYL
 894  200506_08  2006-01-25 00  2006-01-30 00  160  182  1467  1603   970   65  JIM
 895  200506_10  2006-02-22 00  2006-02-24 00  107  113  1435  1468   985   50  KATE
 896  200506_11  2006-02-25 18  2006-03-01 18  120  356  1139  1221   988   40  EMMA
 897  200506_14  2006-03-22 00  2006-03-31 06  139  246  1148  1289   910  110  GLENDA
 898  200506_15  2006-03-14 12  2006-03-21 11  125  197  1387  1603   935  100  LARRY
 899  200506_16  2006-03-18 12  2006-03-27 06  113  215  1082  1189   916  105  FLOYD
 900  200506_17  2006-03-20 06  2006-03-24 18  172  253  1537  1617   950   85  WATI
 901  200506_20  2006-04-02 18  2006-04-08 12  139  222  1143  1167   980   50  HUBERT
 902  200506_22  2006-04-16 00  2006-04-27 18  095  178  1294  1525   916  135  MONICA
 903  200607_03  2006-12-31 00  2007-01-03 00  112  186  1141  1193   992   30  ISOBEL
 904  200607_05  2007-01-31 15  2007-02-07 12  111  162  1369  1437   985   50  NELSON
 905  200607_11  2007-02-27 00  2007-03-12 06  121  274  1188  1357   902  110  GEORGE
 906  200607_12  2007-03-02 18  2007-03-12 06  125  204  1059  1197   971   70  JACOB
 907  200607_13  2007-03-23 06  2007-03-30 00  158  194  1152  1245   941  105  KARA
 908  200607_16  2007-05-15 12  2007-05-23 06  088  111  1380  1577   990   40  PIERRE
 909  200708_01  2007-07-26 12  2007-08-01 00  030  123  0860  0917   992   40  200708_01
 910  200708_02  2007-11-11 00  2007-11-15 06  033  106  0900  0952   984   50  LEE
 911  200708_03  2007-11-14 00  2007-11-19 12  103  126  1448  1475   971   65  GUBA
 912  200708_06  2007-12-26 06  2008-01-02 06  100  229  1078  1180   962   60  MELANIE
 913  200708_08  2007-12-28 00  2008-01-06 06  126  159  1276  1403   975   50  HELEN
 914  200708_11  2008-02-11 00  2008-02-20 12  146  255  1134  1214   948   80  NICHOLAS
 915  200708_15  2008-02-28 00  2008-03-07 06  147  254  1092  1290   985   55  OPHELIA
 916  200708_20  2008-03-23 06  2008-03-30 06  120  262  1020  1116   934   95  PANCHO
 917  200708_22  2008-04-20 00  2008-04-24 06  082  149  0965  1067   988   50  ROSIE
 918  200708_23  2008-04-20 00  2008-04-26 06  057  171  0822  1002   984   50  DURGA
 919  200809_02  2008-11-17 12  2008-11-22 00  081  172  0894  1106   990   50  ANIKA
 920  200809_03  2008-12-15 00  2009-01-03 18  102  179  0902  1288   950   95  BILLY
 921  200809_06  2009-01-10 18  2009-01-12 06  161  171  1396  1425   986   45  CHARLOTTE
 922  200809_08  2009-01-24 00  2009-01-27 18  173  252  1151  1233   976   55  DOMINIC
 923  200809_09  2009-01-31 06  2009-02-01 18  164  181  1456  1481   988   40  ELLIE
 924  200809_10  2009-02-03 06  2009-02-13 06  150  217  0889  1255   992   45  FREDDY
 925  200809_16  2009-02-28 00  2009-03-06 00  097  215  0931  1079   996   35  GABRIELLE
 926  200809_17  2009-03-05 00  2009-03-11 18  129  248  1467  1561   924  115  HAMISH
 927  200809_18  2009-03-15 00  2009-03-24 06  100  196  0890  1287   958   90  ILSA
 928  200809_20  2009-03-23 00  2009-03-24 01  147  175  1542  1600   985   50  JASPER
 929  200809_23  2009-04-17 06  2009-05-01 06  050  088  1296  1358   999   35  KIRRILY
 930  200910_01  2009-12-08 00  2009-12-23 06  089  253  1204  1395   925  110  LAURENCE
 931  200910_05  2010-01-19 12  2010-01-21 12  141  147  1466  1478   995   35  NEVILLE
 932  200910_06  2010-01-18 12  2010-01-24 06  109  201  1222  1245   975   70  MAGDA
 933  200910_07  2010-01-21 18  2010-01-30 00  119  184  1357  1599   983   50  OLGA
 934  200910_09  2010-03-14 18  2010-03-20 22  129  207  1468  1600   937  105  ULUI
 935  200910_11  2010-03-24 12  2010-04-02 12  085  168  1350  1383   971   70  PAUL
 936  200910_12  2010-04-01 00  2010-04-07 06  088  161  0902  0933   980   60  ROBYN
 937  200910_13  2010-04-20 06  2010-04-26 12  100  183  1043  1175   988   55  SEAN
 938  201011_01  2010-10-29 19  2010-11-05 06  074  158  0903  0984   995   40  ANGGREK
 939  201011_02  2010-11-29 00  2010-12-04 18  114  238  0853  0959   973   70  ABELE
 940  201011_03  2010-12-15 06  2010-12-20 06  182  297  1090  1141         30  201011_03
 941  201011_05  2010-12-24 00  2010-12-25 00  147  174  1451  1498   993   40  TASHA
 942  201011_06  2010-12-29 00  2011-01-05 01  145  211  1028  1328   993   30  201011_06
 943  201011_09  2011-01-09 06  2011-01-16 12  148  163  1070  1148   986   40  VINCE
 944  201011_10  2011-01-12 18  2011-01-18 06  124  400  1498  1720   943  100  ZELIA
 945  201011_11  2011-01-23 00  2011-01-30 18  153  214  1466  1608   989   50  ANTHONY
 946  201011_12  2011-01-21 00  2011-01-30 06  143  315  1078  1294   949   95  BIANCA
 947  201011_14  2011-01-31 12  2011-02-03 12  135  206  1406  1605   929  110  YASI
 948  201011_16  2011-02-14 01  2011-02-23 07  159  317  1019  1193   960   75  DIANNE
 949  201011_17  2011-02-14 00  2011-02-27 00  124  320  1039  1320   969   65  CARLOS
 950  201011_25  2011-03-26 00  2011-04-08 03  085  176  1180  1335   994   30  201011_25
 951  201011_29  2011-04-12 00  2011-04-18 00  102  127  1232  1263   986   55  ERROL
 952  201112_01  2011-12-02 00  2011-12-09 12  055  215  0876  1027   972   75  ALENGA
 953  201112_02  2011-12-18 00  2011-12-26 06  120  265  1542  1623   994   35  201112_02
 954  201112_04  2011-12-21 00  2011-12-31 06  096  144  1311  1485   978   55  GRANT
 955  201112_07  2012-01-09 00  2012-01-13 08  120  252  1175  1200   960   80  HEIDI
 956  201112_11  2012-01-23 12  2012-02-03 00  150  300  1077  1160   974   60  IGGY
 957  201112_12  2012-01-31 18  2012-02-06 12  148  174  1406  1602   977   60  JASMINE
 958  201112_15  2012-03-05 12  2012-03-08 09  104  160  0897  1013   986   50  KOJI
 959  201112_16  2012-03-10 00  2012-03-18 06  154  271  1120  1204   935   85  LUA
 960  201213_03  2012-12-26 12  2012-12-29 12  075  129  1599  1649   964   80  FREDA
 961  201213_04  2012-12-26 12  2012-12-31 18  134  309  1080  1162   988   45  MITCHELL
 962  201213_05  2013-01-05 00  2013-01-15 06  100  311  1090  1263   930  105  NARELLE
 963  201213_07  2013-01-17 12  2013-01-28 12  140  311  1368  1511   991   35  OSWALD
 964  201213_08  2013-01-20 03  2013-01-23 09  165  210  1172  1235   988   45  PETA
 965  201213_10  2013-02-21 06  2013-03-01 00  130  260  1182  1259   944   90  RUSTY
 966  201213_13  2013-03-05 00  2013-03-10 00  150  179  1494  1604   958   85  SANDRA
 967  201213_14  2013-03-12 12  2013-03-20 06  114  196  1402  1541   985   50  TIM
 968  201213_17  2013-04-06 12  2013-04-12 02  057  267  0992  1056   971   75  VICTORIA
 969  201213_18  2013-04-28 12  2013-05-02 00  117  141  1428  1539   981   65  ZANE
 970  201314_01  2013-11-19 22  2013-12-01 06  105  169  1132  1376   991   40  ALESSIA
 971  201314_03  2013-12-16 06  2013-12-20 00  082  132  0896  0987   959   85  BRUCE
 972  201314_04  2013-12-25 14  2014-01-01 06  120  291  1170  1245   948   90  CHRISTINE
 973  201314_07  2014-01-24 06  2014-01-31 13  105  229  1462  1600   974   60  DYLAN
 974  201314_08  2014-01-30 00  2014-02-12 00  136  213  1293  1417   992   35  FLETCHER
 975  201314_09  2014-01-31 00  2014-02-13 00  131  255  1214  1335   982   55  201314_09
 976  201314_10  2014-01-31 15  2014-02-05 06  137  220  1503  1644   988   40  EDNA
 977  201314_13  2014-02-28 00  2014-03-17 12  095  190  1496  1729   992   40  HADI
 978  201314_14  2014-03-06 00  2014-03-27 06  080  219  0969  1419   927  120  GILLIAN
 979  201314_15  2014-04-02 00  2014-04-15 12  102  264  1450  1606   922  120  ITA
 980  201314_16  2014-04-15 12  2014-04-22 06  100  179  0905  1000   966   75  JACK
 981  201415_04  2014-12-21 15  2014-12-30 02  075  166  0900  1008   955   90  KATE
 982  201415_13  2015-02-14 00  2015-02-20 18  108  148  1330  1451   943  100  LAM
 983  201415_14  2015-02-16 06  2015-02-20 18  143  254  1505  1561   932  110  MARCIA
 984  201415_16  2015-03-08 14  2015-03-14 16  137  340  1125  1200   955   75  OLWYN
 985  201415_17  2015-03-09 00  2015-03-27 00  115  152  1260  1513   963   90  NATHAN
 986  201415_19  2015-04-04 06  2015-04-08 03  102  212  0863  0979   953   95  IKOLA
 987  201415_21  2015-04-27 00  2015-05-01 12  120  223  1090  1150   950  100  QUANG
 988  201415_24  2015-06-28 18  2015-07-03 00  037  077  1590  1634   996   35  RAQUEL
 989  201516_05  2015-12-21 03  2016-01-01 00  125  245  1310  1385   994   30  201516_05
 990  201516_08  2016-01-27 00  2016-02-01 00  130  280  1176  1260   980   55  STAN
 991  201516_09  2016-02-09 00  2016-02-14 12  097  151  0904  0979   987   50  URIAH
 992  201516_10  2016-02-09 06  2016-02-15 12  160  260  1539  1605   982   50  TATIANA
 993  201516_14  2016-03-14 00  2016-03-16 06  155  166  1369  1411   998   30  201516_14
 994  201617_06  2016-12-18 06  2016-12-23 00  105  205  1237  1299   994   30  201617_06
 995  201617_07  2016-12-18 12  2016-12-25 06  141  177  1132  1226   987   45  YVETTE
 996  201617_19  2017-02-15 06  2017-02-22 12  144  170  1360  1396   987   50  ALFRED
 997  201617_20  2017-03-01 00  2017-03-06 12  077  155  1271  1390   984   55  BLANCHE
 998  201617_22  2017-03-19 12  2017-03-23 18  132  225  1168  1220   985   50  201617_22
 999  201617_23  2017-03-21 18  2017-03-30 00  100  165  0913  1008   994   45  CALEB
1000  201617_24  2017-03-22 00  2017-04-01 00  120  292  1469  1592   943  105  DEBBIE
1001  201617_26  2017-04-04 06  2017-04-11 18  099  217  0982  1150   924  120  ERNIE
1002  201617_27  2017-04-06 00  2017-04-16 00  070  165  1151  1369   998   30  201617_27
1003  201617_29  2017-04-24 00  2017-04-30 00  073  134  1222  1365   980   65  FRANCES
1004  201617_30  2017-04-29 12  2017-05-01 06  094  106  0974  1019   997   35  GREG
1005  201718_02  2017-11-21 00  2017-11-29 00  084  105  1091  1123   998   35  CEMPAKA
1006  201718_03  2017-11-26 00  2017-12-04 06  062  170  0931  1123   985   50  DAHLIA
1007  201718_06  2017-12-26 00  2017-12-29 00  145  210  1216  1234   980   55  HILDA
1008  201718_08  2018-01-03 18  2018-01-06 06  083  127  0906  0960   993   40  IRVING
1009  201718_09  2018-01-07 00  2018-01-15 06  130  292  1133  1295   975   50  JOYCE
1010  201718_17  2018-02-12 18  2018-02-21 06  100  284  1206  1335   955   80  KELVIN
1011  201718_20  2018-03-14 00  2018-03-25 00  090  288  1059  1325   905  135  MARCUS
1012  201718_21  2018-03-11 06  2018-03-16 06  093  268  1561  1604   993   40  LINDA
1013  201718_22  2018-03-20 00  2018-03-26 00  077  169  1350  1417   958   85  NORA
1014  201718_24  2018-03-19 18  2018-04-09 20  080  224  1486  1649   987   55  IRIS
1015  201819_04  2018-11-29 21  2018-12-20 06  083  211  1359  1562   958   80  OWEN
1016  201819_05  2018-12-14 06  2018-12-26 06  077  250  0748  0931   942  100  KENANGA
1017  201819_07  2018-12-28 00  2019-01-09 00  116  200  1395  1561   987   50  PENNY
1018  201819_12  2019-01-21 00  2019-02-02 12  089  206  0935  1284   974   65  RILEY
1019  201819_14  2019-02-21 00  2019-02-22 12  226  271  1591  1600   979   55  OMA
1020  201819_17  2019-03-08 00  2019-03-17 18  085  165  0901  1145   951   95  SAVANNAH
1021  201819_19  2019-03-18 00  2019-03-28 00  130  229  1102  1227   928  115  VERONICA
1022  201819_20  2019-03-15 00  2019-03-27 18  084  213  1350  1510   950   95  TREVOR
1023  201819_21  2019-04-03 00  2019-04-10 00  075  168  1124  1330   980   65  WALLACE
1024  201819_26  2019-05-08 00  2019-05-18 12  069  163  1281  1621   993   50  ANN
1025  201920_02  2020-01-04 00  2020-01-08 06  138  203  1195  1224   986   40  BLAKE
1026  201920_03  2020-01-05 06  2020-01-18 00  094  243  1002  1377   969   75  CLAUDIA
1027  201920_05  2020-02-03 00  2020-02-09 06  164  234  1165  1295   955   80  DAMIEN
1028  201920_06  2020-02-04 06  2020-02-14 06  116  337  1586  1639   970   70  UESI
1029  201920_08  2020-02-22 00  2020-03-01 12  120  166  1105  1192   960   85  FERDINAND


=============================================================================================          
      cyclone    start date     end date       latitude  longitude    min  max  cyclone
      number     yyyy-mm-dd hh  yyyy-mm-dd hh  min  max  min   max    hPa  kts  name                  

Document: summary_bom.htm
Updated: 17 June 2020
[Australian Severe Weather index] [Copyright Notice] [Email Contacts] [Search This Site] [Privacy Policy]


Main Index Home Page Stock Weather Photos Extreme Storms Discussion Storm News and Storm Chasing Reports Tropical Cyclones / Hurricanes / Typhoons Weather Data and Links Wild Fires / Bushfires Weather Observation Techniques Weather Picture Catalogue Tornado Pictures and Reports Stock Video Footage and DVDs for sale